M I D A S
Marine Information and Data Acquisition System
Tripno 1521 of the Zeeleeuw from 2008-07-17 06:24:38 to 2008-07-17 15:20:31
Back to CruiseResearch ActivitiesStationsMapUnderway DataData graphs

EquipmentUnitsComment
TimeDGPSUTC
LatitudeDGPSDM.mWGS84
LongitudeDGPSDM.mWGS84
TemperatureSBE03/SBE38deg celciusITS90
ConductivitySBE21S/mITS90
SalinitySBE21 Practical Salinity Units
ChlorophylAChelsea fluorimeterg/lCalibrated in Aceton
Missing or incorrect values are displayed as -999
Sea surface data collected by the RV Zeeleeuw from 2008-07-17 06:27:00 to 2008-07-17 15:22:41
                                                                                    Next 1000 lines
Time Latitude Longitude Temperature Conductivity Salinity ChlorophylA
2008-07-17 06:27:09 51°13.623 2°56.045 21.047 0.07627 0.389731 -1.627401
2008-07-17 06:27:14 51°13.624 2°56.043 21.0298 0.07627 0.389731 -1.627401
2008-07-17 06:27:19 51°13.625 2°56.04 21.0434 0.07627 0.389724 -1.627401
2008-07-17 06:27:25 51°13.626 2°56.036 21.0564 0.07627 0.389737 -1.627401
2008-07-17 06:27:29 51°13.627 2°56.033 21.0556 0.07627 0.389743 -1.627401
2008-07-17 06:27:34 51°13.628 2°56.029 21.0571 0.07627 0.389743 -1.627401
2008-07-17 06:27:39 51°13.629 2°56.024 21.0571 0.07627 0.389737 -1.627401
2008-07-17 06:27:44 51°13.631 2°56.019 21.0594 0.07627 0.38975 -1.627401
2008-07-17 06:27:49 51°13.632 2°56.014 21.0641 0.07627 0.38975 -1.627401
2008-07-17 06:27:54 51°13.634 2°56.009 21.0581 0.07627 0.389743 -1.627401
2008-07-17 06:27:59 51°13.635 2°56.003 21.0528 0.07627 0.389743 -1.627401
2008-07-17 06:28:04 51°13.637 2°55.996 21.0608 0.07627 0.389756 -1.627401
2008-07-17 06:28:09 51°13.639 2°55.989 21.0688 0.07627 0.38975 -1.627401
2008-07-17 06:28:15 51°13.641 2°55.981 21.076 0.07627 0.38975 -1.627401
2008-07-17 06:28:19 51°13.641 2°55.976 21.0896 0.07627 0.389756 -1.627401
2008-07-17 06:28:24 51°13.642 2°55.97 21.0917 0.07627 0.389756 -1.627401
2008-07-17 06:28:29 51°13.643 2°55.965 21.087 0.07627 0.389756 -1.627401
2008-07-17 06:28:35 51°13.644 2°55.96 21.0854 0.07627 0.389762 -1.627401
2008-07-17 06:28:40 51°13.644 2°55.958 21.0901 0.07627 0.389775 -1.627401
2008-07-17 06:28:44 51°13.645 2°55.957 21.0882 0.07627 0.389775 -1.627401
2008-07-17 06:28:49 51°13.645 2°55.956 21.084 0.07627 0.389781 -1.627401
2008-07-17 06:28:54 51°13.645 2°55.956 21.0529 0.07627 0.389787 -1.627401
2008-07-17 06:28:59 51°13.645 2°55.955 21.0525 0.07627 0.389787 -1.627401
2008-07-17 06:29:04 51°13.645 2°55.954 21.0523 0.07627 0.389787 -1.627401
2008-07-17 06:29:09 51°13.646 2°55.952 21.0491 0.07627 0.3898 -1.627401
2008-07-17 06:29:14 51°13.646 2°55.95 21.0566 0.07627 0.389806 -1.627401
2008-07-17 06:29:20 51°13.647 2°55.946 21.0559 0.07627 0.389806 -1.627401
2008-07-17 06:29:25 51°13.648 2°55.943 21.0602 0.07627 0.389812 -1.627401
2008-07-17 06:29:29 51°13.649 2°55.939 21.0648 0.07627 0.389812 -1.627401
2008-07-17 06:29:34 51°13.65 2°55.935 21.0648 0.07627 0.389806 -1.627401
2008-07-17 06:29:39 51°13.652 2°55.93 21.0624 0.07627 0.389819 -1.627401
2008-07-17 06:29:45 51°13.654 2°55.924 21.0676 0.07627 0.389819 -1.627401
2008-07-17 06:29:49 51°13.655 2°55.919 21.0662 0.07627 0.389812 -1.627401
2008-07-17 06:29:54 51°13.657 2°55.914 21.0634 0.07627 0.389825 -1.627401
2008-07-17 06:29:59 51°13.659 2°55.908 21.0611 0.07627 0.389825 -1.627401
2008-07-17 06:30:05 51°13.661 2°55.9 21.066 0.07627 0.389819 -1.627401
2008-07-17 06:30:09 51°13.662 2°55.895 21.0687 0.07627 0.389825 -1.627401
2008-07-17 06:30:14 51°13.664 2°55.888 21.0707 0.07627 0.389825 -1.627401
2008-07-17 06:30:19 51°13.666 2°55.881 21.0823 0.07627 0.389825 -1.627401
2008-07-17 06:30:24 51°13.668 2°55.874 21.0753 0.07627 0.389831 -1.627401
2008-07-17 06:30:29 51°13.671 2°55.867 21.0752 0.07627 0.389825 -1.627401
2008-07-17 06:30:35 51°13.673 2°55.859 21.079 0.07627 0.389825 -1.627401
2008-07-17 06:30:39 51°13.675 2°55.853 21.0786 0.076167 0.389295 -1.627401
2008-07-17 06:30:44 51°13.677 2°55.845 21.0783 0.076167 0.389288 -1.627401
2008-07-17 06:30:49 51°13.679 2°55.838 21.0786 0.076167 0.389295 -1.627401
2008-07-17 06:30:55 51°13.682 2°55.829 21.0916 0.07627 0.389844 -1.627401
2008-07-17 06:31:00 51°13.684 2°55.821 21.0876 0.076167 0.389295 -1.627401
2008-07-17 06:31:04 51°13.686 2°55.815 21.0865 0.076167 0.389295 -1.627401
2008-07-17 06:31:09 51°13.688 2°55.808 21.0857 0.07627 0.38985 -1.627401
2008-07-17 06:31:14 51°13.689 2°55.801 21.0865 0.076167 0.389301 -1.627401
2008-07-17 06:31:20 51°13.692 2°55.792 21.0858 0.076167 0.389313 -1.627401
2008-07-17 06:31:24 51°13.693 2°55.786 21.0923 0.076167 0.389307 -1.627401
2008-07-17 06:31:29 51°13.694 2°55.779 21.0928 0.076167 0.389307 -1.627401
2008-07-17 06:31:34 51°13.695 2°55.772 21.0929 0.076167 0.38932 -1.627401
2008-07-17 06:31:40 51°13.697 2°55.765 21.0913 0.076167 0.38932 -1.627401
2008-07-17 06:31:45 51°13.698 2°55.759 21.0907 0.076167 0.389326 -1.627401
2008-07-17 06:31:49 51°13.699 2°55.754 21.0897 0.076167 0.389332 -1.627401
2008-07-17 06:31:54 51°13.7 2°55.749 21.0897 0.076167 0.389332 -1.627401
2008-07-17 06:31:59 51°13.701 2°55.745 21.0959 0.076167 0.389332 -1.627401
2008-07-17 06:32:04 51°13.701 2°55.741 21.0945 0.076167 0.389338 -1.627401
2008-07-17 06:32:09 51°13.702 2°55.738 21.0929 0.076167 0.389332 -1.627401
2008-07-17 06:32:14 51°13.703 2°55.737 21.0932 0.076167 0.389345 -1.627401
2008-07-17 06:32:19 51°13.703 2°55.736 21.094 0.076167 0.389338 -1.627401
2008-07-17 06:32:24 51°13.703 2°55.736 21.0956 0.076167 0.389351 -1.627401
2008-07-17 06:32:29 51°13.704 2°55.737 21.0995 0.076167 0.389345 -1.627401
2008-07-17 06:32:34 51°13.705 2°55.738 21.1055 0.076167 0.389345 -1.627401
2008-07-17 06:32:39 51°13.706 2°55.74 21.1072 0.076167 0.389364 -1.627401
2008-07-17 06:32:44 51°13.708 2°55.743 21.1118 0.076167 0.389364 -1.627401
2008-07-17 06:32:49 51°13.71 2°55.745 21.1137 0.076167 0.389376 -1.592577
2008-07-17 06:32:54 51°13.712 2°55.748 21.1143 0.076167 0.389382 -1.627401
2008-07-17 06:32:59 51°13.715 2°55.75 21.1183 0.076167 0.389401 -1.627401
2008-07-17 06:33:04 51°13.718 2°55.752 21.1023 0.076167 0.389401 -1.627401
2008-07-17 06:33:09 51°13.721 2°55.753 21.0558 0.076167 0.389401 -1.627401
2008-07-17 06:33:14 51°13.723 2°55.753 21.058 0.076167 0.389407 -1.627401
2008-07-17 06:33:19 51°13.725 2°55.753 21.061 0.076167 0.389401 -1.627401
2008-07-17 06:33:24 51°13.726 2°55.753 21.0616 0.076167 0.389407 -1.627401
2008-07-17 06:33:29 51°13.727 2°55.753 20.7286 0.076167 0.389407 -1.627401
2008-07-17 06:33:34 51°13.727 2°55.752 20.3682 0.075653 0.387067 -1.279161
2008-07-17 06:33:39 51°13.727 2°55.752 19.8489 0.097264 0.504521 -1.244337
2008-07-17 06:33:44 51°13.727 2°55.751 19.5334 0.172499 0.916098 -0.58268
2008-07-17 06:33:49 51°13.726 2°55.751 19.4478 1.245865 7.618105 0.810283
2008-07-17 06:33:54 51°13.724 2°55.751 19.1854 1.917838 12.278968 0.879931
2008-07-17 06:33:59 51°13.723 2°55.751 19.1816 1.917838 12.278968 0.879931
2008-07-17 06:34:05 51°13.722 2°55.75 19.0757 2.706857 18.09028 0.496866
2008-07-17 06:34:09 51°13.721 2°55.75 19.0296 2.859129 19.388323 1.541588
2008-07-17 06:34:14 51°13.72 2°55.75 18.9807 3.867899 27.270937 2.690782
2008-07-17 06:34:19 51°13.72 2°55.75 18.9474 3.918607 27.91549 3.247966
2008-07-17 06:34:24 51°13.719 2°55.749 18.9336 4.013809 28.830909 3.735503
2008-07-17 06:34:29 51°13.72 2°55.749 18.9132 3.959365 28.534146 3.979271
2008-07-17 06:34:34 51°13.721 2°55.748 18.8855 3.959365 28.534146 3.979271
2008-07-17 06:34:39 51°13.722 2°55.746 18.9205 3.87434 27.944473 4.153392
2008-07-17 06:34:44 51°13.724 2°55.745 18.8607 3.883154 28.102553 4.327512
2008-07-17 06:34:49 51°13.726 2°55.743 18.8682 3.868329 28.042575 4.39716
2008-07-17 06:34:54 51°13.728 2°55.74 18.8835 3.859828 28.012947 4.431984
2008-07-17 06:34:59 51°13.731 2°55.737 18.8575 3.859828 28.012947 4.431984
2008-07-17 06:35:04 51°13.735 2°55.734 18.86 3.85734 28.018655 4.466808
2008-07-17 06:35:09 51°13.739 2°55.729 18.8684 3.855371 28.028567 4.431984
2008-07-17 06:35:14 51°13.744 2°55.724 18.8503 3.84718 27.976095 4.501632
2008-07-17 06:35:20 51°13.751 2°55.716 18.8687 3.832251 27.871244 4.466808
2008-07-17 06:35:24 51°13.756 2°55.711 18.8559 3.815457 27.744476 4.466808
2008-07-17 06:35:29 51°13.762 2°55.703 18.8421 3.815457 27.744476 4.466808
2008-07-17 06:35:34 51°13.77 2°55.695 18.8725 3.791406 27.558619 4.501632
2008-07-17 06:35:39 51°13.778 2°55.687 18.8308 3.775028 27.432145 4.39716
2008-07-17 06:35:44 51°13.786 2°55.678 18.8625 3.76518 27.355802 4.431984
2008-07-17 06:35:49 51°13.795 2°55.67 18.8573 3.748699 27.227527 4.39716
2008-07-17 06:35:54 51°13.804 2°55.661 18.8498 3.764766 27.35813 4.362336
2008-07-17 06:35:59 51°13.813 2°55.652 18.8892 3.762278 27.342186 4.39716
2008-07-17 06:36:04 51°13.823 2°55.643 18.8448 3.762278 27.342186 4.39716
2008-07-17 06:36:09 51°13.833 2°55.634 18.8586 3.764247 27.361172 4.431984
2008-07-17 06:36:14 51°13.843 2°55.625 18.847 3.762174 27.347023 4.362336
2008-07-17 06:36:19 51°13.853 2°55.617 18.8401 3.760619 27.334476 4.431984
2008-07-17 06:36:25 51°13.866 2°55.606 18.8265 3.768601 27.399408 4.431984
2008-07-17 06:36:29 51°13.875 2°55.599 18.8321 3.765491 27.370178 4.466808
2008-07-17 06:36:34 51°13.886 2°55.591 18.8325 3.765491 27.370178 4.466808
2008-07-17 06:36:39 51°13.896 2°55.582 18.8241 3.748595 27.236448 4.57128
2008-07-17 06:36:45 51°13.91 2°55.571 18.8042 3.739059 27.163654 4.57128
2008-07-17 06:36:49 51°13.918 2°55.564 18.802 3.733877 27.124941 4.640929
2008-07-17 06:36:54 51°13.93 2°55.555 18.7884 3.737816 27.161311 4.640929
2008-07-17 06:36:59 51°13.941 2°55.546 18.7857 3.737816 27.161311 4.640929
2008-07-17 06:37:04 51°13.952 2°55.537 18.7769 3.750669 27.26963 4.675753
2008-07-17 06:37:09 51°13.963 2°55.528 18.7588 3.763108 27.373659 4.675753
2008-07-17 06:37:14 51°13.974 2°55.52 18.7629 3.770778 27.441314 4.675753
2008-07-17 06:37:19 51°13.985 2°55.511 18.7577 3.785291 27.564854 4.745401
2008-07-17 06:37:24 51°13.997 2°55.503 18.7259 3.80561 27.738131 4.780225
2008-07-17 06:37:29 51°14.007 2°55.494 18.7311 3.80561 27.738131 4.780225
2008-07-17 06:37:34 51°14.019 2°55.486 18.7275 3.824167 27.893158 4.849873
2008-07-17 06:37:39 51°14.03 2°55.477 18.733 3.84936 28.104303 4.989169
2008-07-17 06:37:44 51°14.041 2°55.468 18.7287 3.884093 28.394881 5.023993
2008-07-17 06:37:49 51°14.052 2°55.46 18.7342 3.904727 28.566417 5.128465
2008-07-17 06:37:54 51°14.063 2°55.451 18.7123 3.934176 28.815922 5.093641
2008-07-17 06:37:58 51°14.072 2°55.444 18.7437 3.952323 28.971496 5.128465
2008-07-17 06:38:03 51°14.083 2°55.435 18.732 3.952323 28.971496 5.128465
2008-07-17 06:38:08 51°14.094 2°55.426 18.7148 3.964352 29.074572 5.128465
2008-07-17 06:38:13 51°14.106 2°55.417 18.7103 3.986234 29.255974 5.128465
2008-07-17 06:38:18 51°14.117 2°55.408 18.7042 3.994012 29.320625 5.163289
2008-07-17 06:38:23 51°14.129 2°55.399 18.7171 3.989138 29.285245 5.163289
2008-07-17 06:38:28 51°14.14 2°55.391 18.7318 3.989138 29.285245 5.163289
2008-07-17 06:38:33 51°14.151 2°55.381 18.7206 4.006354 29.425949 5.128465
2008-07-17 06:38:37 51°14.159 2°55.374 18.7127 4.02243 29.557419 5.163289
2008-07-17 06:38:42 51°14.17 2°55.364 18.7083 4.019941 29.54266 5.163289
2008-07-17 06:38:46 51°14.178 2°55.356 18.6933 4.018385 29.533853 5.093641
2008-07-17 06:38:51 51°14.189 2°55.345 18.7088 4.006147 29.434858 5.023993
2008-07-17 06:38:56 51°14.199 2°55.334 18.6932 4.006147 29.434858 5.023993
2008-07-17 06:39:01 51°14.209 2°55.322 18.6815 3.996813 29.355192 4.989169
2008-07-17 06:39:06 51°14.218 2°55.31 18.6909 3.992975 29.323826 4.954345
2008-07-17 06:39:11 51°14.228 2°55.297 18.6739 3.991938 29.317574 4.954345
2008-07-17 06:39:16 51°14.237 2°55.284 18.6841 3.995776 29.353396 4.919521
2008-07-17 06:39:21 51°14.246 2°55.271 18.6823 4.001687 29.405082 4.954345
2008-07-17 06:39:26 51°14.255 2°55.258 18.6833 4.00708 29.45255 4.919521
2008-07-17 06:39:31 51°14.264 2°55.244 18.6773 4.00708 29.45255 4.919521
2008-07-17 06:39:36 51°14.273 2°55.23 18.6949 4.00511 29.440899 4.954345
2008-07-17 06:39:41 51°14.281 2°55.215 18.676 4.010296 29.485013 4.954345
2008-07-17 06:39:45 51°14.288 2°55.204 18.6559 4.010607 29.492039 4.884697
2008-07-17 06:39:51 51°14.298 2°55.186 18.6582 4.014029 29.521178 4.815049
2008-07-17 06:39:56 51°14.306 2°55.171 18.6522 4.017348 29.548913 4.780225
2008-07-17 06:40:01 51°14.313 2°55.156 18.6603 4.017348 29.548913 4.780225
2008-07-17 06:40:05 51°14.32 2°55.144 18.639 4.021082 29.580613 4.745401
2008-07-17 06:40:11 51°14.33 2°55.126 18.6293 4.030728 29.659062 4.710577
2008-07-17 06:40:16 51°14.337 2°55.111 18.6193 4.035499 29.703232 4.815049
2008-07-17 06:40:21 51°14.345 2°55.096 18.6095 4.050746 29.836166 4.849873
2008-07-17 06:40:26 51°14.352 2°55.08 18.6028 4.065267 29.960443 4.849873
2008-07-17 06:40:31 51°14.359 2°55.063 18.5923 4.065267 29.960443 4.849873
2008-07-17 06:40:36 51°14.366 2°55.045 18.5842 4.077507 30.063801 4.849873
2008-07-17 06:40:41 51°14.372 2°55.026 18.5658 4.091407 30.182019 4.989169
2008-07-17 06:40:45 51°14.377 2°55.009 18.5655 4.122735 30.448356 5.023993
2008-07-17 06:40:51 51°14.383 2°54.984 18.5572 4.152405 30.700911 5.093641
2008-07-17 06:40:56 51°14.388 2°54.962 18.5436 4.152405 30.700911 5.093641
2008-07-17 06:41:01 51°14.392 2°54.939 18.5476 4.167967 30.838627 5.023993
2008-07-17 06:41:06 51°14.396 2°54.915 18.524 4.191518 31.037767 5.023993
2008-07-17 06:41:11 51°14.399 2°54.891 18.5177 4.213204 31.225878 4.989169
2008-07-17 06:41:16 51°14.401 2°54.866 18.5263 4.230739 31.381097 4.884697
2008-07-17 06:41:21 51°14.403 2°54.84 18.5036 4.241116 31.474205 4.849873
2008-07-17 06:41:26 51°14.404 2°54.815 18.5127 4.250662 31.561718 4.919521
2008-07-17 06:41:31 51°14.405 2°54.789 18.4852 4.250662 31.561718 4.919521
2008-07-17 06:41:36 51°14.405 2°54.762 18.4805 4.261766 31.659197 5.058817
2008-07-17 06:41:41 51°14.404 2°54.736 18.4711 4.273284 31.763228 5.232937
2008-07-17 06:41:46 51°14.403 2°54.71 18.4484 4.287916 31.891999 5.372234
2008-07-17 06:41:51 51°14.401 2°54.684 18.4644 4.310332 32.085609 5.546354
2008-07-17 06:41:56 51°14.398 2°54.658 18.4559 4.327041 32.23074 5.616002
2008-07-17 06:42:01 51°14.394 2°54.632 18.4619 4.327041 32.23074 5.616002
2008-07-17 06:42:05 51°14.391 2°54.611 18.4387 4.34427 32.380963 5.720474
2008-07-17 06:42:11 51°14.385 2°54.579 18.4226 4.35797 32.503178 5.790122
2008-07-17 06:42:16 51°14.379 2°54.553 18.4239 4.367415 32.592518 5.894594
2008-07-17 06:42:21 51°14.372 2°54.527 18.4115 4.386514 32.760653 5.894594
2008-07-17 06:42:26 51°14.366 2°54.501 18.4214 4.386514 32.760653 5.894594
2008-07-17 06:42:31 51°14.359 2°54.476 18.4147 4.395752 32.842201 6.033891
2008-07-17 06:42:36 51°14.352 2°54.45 18.3927 4.408831 32.9559 6.138363
2008-07-17 06:42:41 51°14.345 2°54.426 18.4035 4.420146 33.058729 6.173187
2008-07-17 06:42:45 51°14.338 2°54.406 18.3965 4.433641 33.180537 6.103539
2008-07-17 06:42:51 51°14.328 2°54.377 18.3965 4.433018 33.184227 6.138363
2008-07-17 06:42:56 51°14.319 2°54.352 18.4051 4.444333 33.282183 6.138363
2008-07-17 06:43:01 51°14.31 2°54.327 18.3963 4.444333 33.282183 6.138363
2008-07-17 06:43:06 51°14.303 2°54.302 18.3897 4.449939 33.333626 6.138363
2008-07-17 06:43:11 51°14.294 2°54.276 18.3797 4.4407 33.263228 6.103539
2008-07-17 06:43:16 51°14.287 2°54.251 18.3957 4.460632 33.435442 6.138363
2008-07-17 06:43:21 51°14.279 2°54.225 18.3777 4.464473 33.468945 6.068715
2008-07-17 06:43:25 51°14.272 2°54.205 18.3863 4.470806 33.522075 6.068715
2008-07-17 06:43:31 51°14.262 2°54.174 18.3811 4.470806 33.522075 6.068715
2008-07-17 06:43:36 51°14.255 2°54.149 18.3757 4.477242 33.578023 6.103539
2008-07-17 06:43:41 51°14.247 2°54.123 18.3732 4.483056 33.630053 6.068715
2008-07-17 06:43:46 51°14.239 2°54.098 18.3642 4.48669 33.663148 5.964243
2008-07-17 06:43:51 51°14.231 2°54.072 18.3651 4.489805 33.69254 5.964243
2008-07-17 06:43:56 51°14.223 2°54.047 18.3786 4.49458 33.735249 5.999067
2008-07-17 06:44:01 51°14.215 2°54.021 18.3758 4.49458 33.735249 5.999067
2008-07-17 06:44:06 51°14.207 2°53.995 18.3651 4.500291 33.785825 6.033891
2008-07-17 06:44:11 51°14.199 2°53.97 18.3612 4.496449 33.757433 5.964243
2008-07-17 06:44:16 51°14.19 2°53.944 18.3645 4.50652 33.845336 5.999067
2008-07-17 06:44:21 51°14.183 2°53.918 18.3563 4.509635 33.874129 5.999067
2008-07-17 06:44:25 51°14.176 2°53.898 18.3516 4.509635 33.874129 5.999067
2008-07-17 06:44:31 51°14.166 2°53.867 18.3492 4.517837 33.941814 5.999067
2008-07-17 06:44:36 51°14.158 2°53.841 18.3522 4.518875 33.951201 6.033891
2008-07-17 06:44:41 51°14.149 2°53.815 18.3514 4.522613 33.985912 6.033891
2008-07-17 06:44:45 51°14.143 2°53.794 18.3484 4.527182 34.026972 6.173187
2008-07-17 06:44:51 51°14.133 2°53.764 18.3592 4.528012 34.035926 6.138363
2008-07-17 06:44:56 51°14.124 2°53.738 18.3486 4.532685 34.077878 5.999067
2008-07-17 06:45:01 51°14.116 2°53.712 18.3465 4.532685 34.077878 5.999067
2008-07-17 06:45:06 51°14.107 2°53.686 18.3435 4.529985 34.057769 5.999067
2008-07-17 06:45:11 51°14.099 2°53.661 18.3419 4.532996 34.085087 5.999067
2008-07-17 06:45:16 51°14.091 2°53.635 18.3434 4.536319 34.11438 5.999067
2008-07-17 06:45:21 51°14.083 2°53.609 18.3384 4.529466 34.056672 6.033891
2008-07-17 06:45:26 51°14.074 2°53.583 18.3389 4.534035 34.096453 6.033891
2008-07-17 06:45:31 51°14.066 2°53.558 18.3392 4.534035 34.096453 6.033891
2008-07-17 06:45:36 51°14.057 2°53.532 18.3359 4.532166 34.082024 6.103539
2008-07-17 06:45:41 51°14.049 2°53.507 18.3361 4.534762 34.106509 6.173187
2008-07-17 06:45:45 51°14.042 2°53.486 18.3379 4.528843 34.058629 6.173187
2008-07-17 06:45:51 51°14.032 2°53.455 18.3408 4.531335 34.080927 6.173187
2008-07-17 06:45:56 51°14.024 2°53.429 18.3358 4.531335 34.080927 6.173187
2008-07-17 06:46:01 51°14.015 2°53.403 18.3374 4.536838 34.129252 6.173187
2008-07-17 06:46:06 51°14.006 2°53.377 18.3374 4.54203 34.173653 6.208011
2008-07-17 06:46:11 51°13.998 2°53.352 18.3349 4.541095 34.167092 6.208011
2008-07-17 06:46:16 51°13.989 2°53.326 18.3419 4.535696 34.122255 6.242835
2008-07-17 06:46:21 51°13.981 2°53.3 18.3333 4.519187 33.98386 6.208011
2008-07-17 06:46:26 51°13.973 2°53.274 18.3354 4.526975 34.049439 6.208011
2008-07-17 06:46:31 51°13.965 2°53.248 18.3321 4.526975 34.049439 6.208011
2008-07-17 06:46:36 51°13.956 2°53.222 18.3424 4.538603 34.147408 6.208011
2008-07-17 06:46:41 51°13.948 2°53.196 18.3426 4.531439 34.087046 6.208011
2008-07-17 06:46:45 51°13.941 2°53.175 18.3331 4.525936 34.041349 6.138363
2008-07-17 06:46:51 51°13.932 2°53.144 18.3297 4.536112 34.127067 6.138363
2008-07-17 06:46:56 51°13.923 2°53.118 18.3304 4.531128 34.085734 6.208011
2008-07-17 06:47:01 51°13.915 2°53.092 18.3261 4.531128 34.085734 6.208011
2008-07-17 06:47:06 51°13.906 2°53.066 18.33 4.540265 34.162721 6.173187
2008-07-17 06:47:11 51°13.898 2°53.04 18.3252 4.534554 34.113945 6.138363
2008-07-17 06:47:16 51°13.889 2°53.015 18.3237 4.54473 34.199035 6.138363
2008-07-17 06:47:21 51°13.881 2°52.988 18.322 4.542549 34.183288 6.138363
2008-07-17 06:47:26 51°13.872 2°52.963 18.3284 4.546599 34.219396 6.138363
2008-07-17 06:47:31 51°13.863 2°52.937 18.3224 4.546599 34.219396 6.138363
2008-07-17 06:47:36 51°13.854 2°52.911 18.3219 4.548779 34.239096 6.138363
2008-07-17 06:47:41 51°13.846 2°52.885 18.3188 4.547845 34.231876 6.138363
2008-07-17 06:47:45 51°13.839 2°52.865 18.3173 4.539538 34.163826 6.103539
2008-07-17 06:47:51 51°13.829 2°52.834 18.3159 4.537877 34.151138 6.068715
2008-07-17 06:47:56 51°13.821 2°52.808 18.3129 4.537877 34.151138 6.068715
2008-07-17 06:48:01 51°13.813 2°52.782 18.315 4.548468 34.241082 6.173187
2008-07-17 06:48:06 51°13.805 2°52.756 18.317 4.548364 34.241524 6.208011
2008-07-17 06:48:11 51°13.797 2°52.73 18.3157 4.54961 34.25335 6.138363
2008-07-17 06:48:16 51°13.789 2°52.703 18.32 4.550233 34.260582 6.173187
2008-07-17 06:48:21 51°13.781 2°52.677 18.3156 4.545249 34.219869 6.208011
2008-07-17 06:48:26 51°13.774 2°52.651 18.3149 4.54691 34.235197 6.208011
2008-07-17 06:48:31 51°13.767 2°52.624 18.3162 4.54691 34.235197 6.208011
2008-07-17 06:48:36 51°13.759 2°52.598 18.314 4.55096 34.270011 6.173187
2008-07-17 06:48:41 51°13.752 2°52.571 18.3162 4.546807 34.23498 6.138363
2008-07-17 06:48:45 51°13.747 2°52.55 18.3202 4.550545 34.266507 6.173187
2008-07-17 06:48:51 51°13.739 2°52.518 18.3202 4.549195 34.254463 6.138363
2008-07-17 06:48:56 51°13.732 2°52.491 18.3188 4.550648 34.267383 6.138363
2008-07-17 06:49:01 51°13.725 2°52.464 18.3208 4.550648 34.267383 6.138363
2008-07-17 06:49:05 51°13.72 2°52.443 18.3216 4.539746 34.176099 6.138363
2008-07-17 06:49:11 51°13.712 2°52.41 18.321 4.542965 34.203899 6.138363
2008-07-17 06:49:16 51°13.705 2°52.384 18.3206 4.551064 34.271546 6.068715
2008-07-17 06:49:21 51°13.699 2°52.357 18.3227 4.547118 34.236948 6.068715
2008-07-17 06:49:26 51°13.692 2°52.33 18.3232 4.548987 34.252711 5.999067
2008-07-17 06:49:31 51°13.686 2°52.303 18.321 4.548987 34.252711 5.999067
2008-07-17 06:49:36 51°13.679 2°52.276 18.3237 4.549506 34.256431 5.964243
2008-07-17 06:49:41 51°13.672 2°52.249 18.3233 4.544418 34.212864 5.894594
2008-07-17 06:49:45 51°13.667 2°52.228 18.3245 4.552517 34.281169 5.85977
2008-07-17 06:49:51 51°13.66 2°52.198 18.3229 4.551479 34.271751 5.824946
2008-07-17 06:49:56 51°13.653 2°52.175 18.3248 4.546495 34.229717 5.755298
2008-07-17 06:50:01 51°13.648 2°52.153 18.3227 4.546495 34.229717 5.755298
2008-07-17 06:50:06 51°13.641 2°52.133 18.3217 4.54608 34.226215 5.720474
2008-07-17 06:50:11 51°13.636 2°52.114 18.3212 4.550648 34.264085 5.616002
2008-07-17 06:50:16 51°13.63 2°52.097 18.3223 4.543899 34.206511 5.650826
2008-07-17 06:50:21 51°13.624 2°52.081 18.3186 4.543691 34.204102 5.581178
2008-07-17 06:50:26 51°13.618 2°52.066 18.3184 4.548779 34.247004 5.581178
2008-07-17 06:50:31 51°13.612 2°52.052 18.3172 4.548779 34.247004 5.581178
2008-07-17 06:50:36 51°13.607 2°52.038 18.3166 4.551998 34.274811 5.546354
2008-07-17 06:50:41 51°13.601 2°52.025 18.317 4.546391 34.228183 5.546354
2008-07-17 06:50:46 51°13.596 2°52.013 18.3168 4.548883 34.249857 5.546354
2008-07-17 06:50:51 51°13.59 2°52.001 18.3181 4.550752 34.26628 5.581178
2008-07-17 06:50:56 51°13.585 2°51.989 18.3149 4.543899 34.208486 5.581178
2008-07-17 06:51:01 51°13.58 2°51.978 18.3142 4.543899 34.208486 5.581178
2008-07-17 06:51:05 51°13.576 2°51.969 18.3127 4.544211 34.21243 5.546354
2008-07-17 06:51:11 51°13.571 2°51.956 18.3115 4.531128 34.103448 5.581178
2008-07-17 06:51:16 51°13.566 2°51.945 18.3125 4.549818 34.261696 5.546354
2008-07-17 06:51:21 51°13.562 2°51.935 18.3112 4.553244 34.290601 5.581178
2008-07-17 06:51:25 51°13.559 2°51.926 18.3137 4.553244 34.290601 5.581178
2008-07-17 06:51:31 51°13.555 2°51.914 18.3135 4.549818 34.261696 5.51153
2008-07-17 06:51:36 51°13.551 2°51.904 18.312 4.549506 34.259728 5.51153
2008-07-17 06:51:41 51°13.548 2°51.894 18.3133 4.544003 34.214631 5.51153
2008-07-17 06:51:46 51°13.545 2°51.884 18.3108 4.551375 34.278133 5.51153
2008-07-17 06:51:51 51°13.542 2°51.875 18.3098 4.546391 34.23675 5.441882
2008-07-17 06:51:56 51°13.539 2°51.865 18.3106 4.550025 34.266746 5.476706
2008-07-17 06:52:01 51°13.537 2°51.855 18.3091 4.550025 34.266746 5.476706
2008-07-17 06:52:06 51°13.534 2°51.846 18.3105 4.554075 34.301571 5.441882
2008-07-17 06:52:11 51°13.532 2°51.836 18.3115 4.549402 34.26215 5.476706
2008-07-17 06:52:16 51°13.529 2°51.827 18.3123 4.550441 34.27091 5.407058
2008-07-17 06:52:21 51°13.527 2°51.817 18.3107 4.551064 34.276825 5.441882
2008-07-17 06:52:25 51°13.525 2°51.81 18.3129 4.549195 34.261718 5.407058
2008-07-17 06:52:31 51°13.522 2°51.798 18.3105 4.549195 34.261718 5.407058
2008-07-17 06:52:36 51°13.52 2°51.789 18.3152 4.554283 34.305304 5.372234
2008-07-17 06:52:41 51°13.518 2°51.78 18.3131 4.542965 34.209826 5.372234
2008-07-17 06:52:46 51°13.516 2°51.77 18.31 4.55096 34.276609 5.407058
2008-07-17 06:52:51 51°13.514 2°51.761 18.3127 4.526871 34.073472 5.372234
2008-07-17 06:52:56 51°13.512 2°51.751 18.3134 4.526871 34.073472 5.372234
2008-07-17 06:53:01 51°13.51 2°51.742 18.3085 4.546495 34.238285 5.372234
2008-07-17 06:53:06 51°13.508 2°51.732 18.3107 4.55096 34.275949 5.33741
2008-07-17 06:53:11 51°13.506 2°51.722 18.3105 4.545457 34.228868 5.302586
2008-07-17 06:53:16 51°13.504 2°51.712 18.3118 4.552725 34.290842 5.302586
2008-07-17 06:53:21 51°13.502 2°51.702 18.3091 4.547326 34.245951 5.267761
2008-07-17 06:53:25 51°13.5 2°51.693 18.309 4.547326 34.245951 5.267761
2008-07-17 06:53:31 51°13.498 2°51.681 18.3088 4.549299 34.261934 5.267761
2008-07-17 06:53:36 51°13.496 2°51.67 18.3088 4.545872 34.233689 5.232937
2008-07-17 06:53:41 51°13.494 2°51.659 18.3113 4.551271 34.280558 5.302586
2008-07-17 06:53:46 51°13.492 2°51.648 18.3126 4.549299 34.263913 5.267761
2008-07-17 06:53:51 51°13.49 2°51.636 18.3116 4.553037 34.295451 5.198113
2008-07-17 06:53:56 51°13.489 2°51.625 18.3093 4.544938 34.227784 5.198113
2008-07-17 06:54:01 51°13.487 2°51.614 18.3126 4.544938 34.227784 5.198113
2008-07-17 06:54:06 51°13.485 2°51.602 18.3095 4.545042 34.229319 5.198113
2008-07-17 06:54:11 51°13.483 2°51.59 18.311 4.54473 34.226032 5.198113
2008-07-17 06:54:16 51°13.481 2°51.579 18.3099 4.544522 34.223621 5.198113
2008-07-17 06:54:21 51°13.48 2°51.567 18.311 4.548156 34.253618 5.128465
2008-07-17 06:54:25 51°13.478 2°51.557 18.3101 4.549091 34.261501 5.163289
2008-07-17 06:54:31 51°13.476 2°51.543 18.3117 4.549091 34.261501 5.163289
2008-07-17 06:54:35 51°13.474 2°51.534 18.3121 4.532374 34.121175 5.128465
2008-07-17 06:54:41 51°13.471 2°51.519 18.3114 4.554698 34.308809 5.128465
2008-07-17 06:54:46 51°13.469 2°51.508 18.3116 4.54608 34.2361 5.163289
2008-07-17 06:54:51 51°13.467 2°51.497 18.3115 4.54691 34.243107 5.128465
2008-07-17 06:54:56 51°13.465 2°51.486 18.3101 4.54691 34.243107 5.128465
2008-07-17 06:55:01 51°13.462 2°51.476 18.3088 4.550233 34.271137 5.093641
2008-07-17 06:55:06 51°13.46 2°51.466 18.3096 4.552829 34.292378 5.093641
2008-07-17 06:55:11 51°13.458 2°51.457 18.3078 4.550129 34.270261 5.093641
2008-07-17 06:55:16 51°13.455 2°51.447 18.3072 4.546495 34.238944 5.093641
2008-07-17 06:55:21 51°13.452 2°51.439 18.3057 4.546807 34.241572 5.058817
2008-07-17 06:55:26 51°13.45 2°51.43 18.3046 4.550025 34.269385 5.093641
2008-07-17 06:55:31 51°13.447 2°51.422 18.305 4.550025 34.269385 5.093641
2008-07-17 06:55:36 51°13.444 2°51.414 18.3055 4.543484 34.214863 5.058817
2008-07-17 06:55:41 51°13.442 2°51.407 18.3039 4.542757 34.208733 5.093641
2008-07-17 06:55:45 51°13.439 2°51.402 18.3042 4.548364 34.256689 4.989169
2008-07-17 06:55:51 51°13.436 2°51.393 18.304 4.553037 34.296112 4.989169
2008-07-17 06:55:56 51°13.433 2°51.387 18.3033 4.549714 34.268737 5.023993
2008-07-17 06:56:01 51°13.43 2°51.38 18.3028 4.549714 34.268737 5.023993
2008-07-17 06:56:06 51°13.427 2°51.374 18.3039 4.550026 34.272685 4.989169
2008-07-17 06:56:11 51°13.424 2°51.368 18.3022 4.552933 34.297877 4.954345
2008-07-17 06:56:16 51°13.422 2°51.363 18.3044 4.544003 34.223855 4.919521
2008-07-17 06:56:21 51°13.419 2°51.358 18.3025 4.551687 34.288684 4.919521
2008-07-17 06:56:26 51°13.417 2°51.353 18.3031 4.551687 34.288684 4.919521
2008-07-17 06:56:31 51°13.415 2°51.349 18.3003 4.54826 34.260431 4.884697
2008-07-17 06:56:36 51°13.413 2°51.345 18.2984 4.553867 34.307745 4.849873
2008-07-17 06:56:41 51°13.41 2°51.341 18.2988 4.550856 34.282335 4.815049
2008-07-17 06:56:46 51°13.408 2°51.338 18.3005 4.544626 34.230429 4.780225
2008-07-17 06:56:51 51°13.406 2°51.333 18.2979 4.548468 34.262183 4.780225
2008-07-17 06:56:56 51°13.404 2°51.33 18.2992 4.548468 34.262183 4.780225
2008-07-17 06:57:01 51°13.402 2°51.328 18.2968 4.55501 34.318046 4.710577
2008-07-17 06:57:05 51°13.401 2°51.325 18.2979 4.548987 34.267224 4.745401
2008-07-17 06:57:11 51°13.398 2°51.321 18.296 4.546391 34.246641 4.675753
2008-07-17 06:57:16 51°13.396 2°51.318 18.2971 4.555737 34.326164 4.675753
2008-07-17 06:57:21 51°13.394 2°51.315 18.2979 4.552518 34.298996 4.640929
2008-07-17 06:57:26 51°13.392 2°51.312 18.2975 4.545457 34.239416 4.606104
2008-07-17 06:57:31 51°13.39 2°51.309 18.3001 4.545457 34.239416 4.606104
2008-07-17 06:57:36 51°13.388 2°51.306 18.2992 4.557709 34.34414 4.57128
2008-07-17 06:57:41 51°13.386 2°51.303 18.2976 4.55719 34.339757 4.606104
2008-07-17 06:57:46 51°13.384 2°51.301 18.2976 4.554283 34.315877 4.606104
2008-07-17 06:57:51 51°13.382 2°51.298 18.298 4.547534 34.258917 4.536456
2008-07-17 06:57:56 51°13.38 2°51.295 18.2993 4.55366 34.310619 4.640929
2008-07-17 06:58:01 51°13.378 2°51.292 18.2996 4.55366 34.310619 4.640929
2008-07-17 06:58:06 51°13.376 2°51.29 18.2957 4.548053 34.262638 4.606104
2008-07-17 06:58:11 51°13.374 2°51.287 18.2974 4.540992 34.202407 4.536456
2008-07-17 06:58:16 51°13.372 2°51.284 18.2973 4.551375 34.290018 4.536456
2008-07-17 06:58:21 51°13.37 2°51.281 18.2979 4.550026 34.278626 4.57128
2008-07-17 06:58:25 51°13.368 2°51.279 18.2989 4.550026 34.278626 4.57128
2008-07-17 06:58:31 51°13.366 2°51.276 18.2977 4.536112 34.161901 4.606104
2008-07-17 06:58:36 51°13.364 2°51.273 18.2979 4.551375 34.290678 4.57128
2008-07-17 06:58:41 51°13.362 2°51.27 18.2997 4.545249 34.238982 4.536456
2008-07-17 06:58:46 51°13.36 2°51.267 18.2978 4.554283 34.315877 4.57128
2008-07-17 06:58:51 51°13.358 2°51.264 18.3017 4.557502 34.343048 4.536456
2008-07-17 06:58:56 51°13.356 2°51.262 18.2986 4.557086 34.339542 4.536456
2008-07-17 06:59:01 51°13.355 2°51.259 18.2968 4.557086 34.339542 4.536456
2008-07-17 06:59:06 51°13.353 2°51.256 18.2987 4.556983 34.338004 4.536456
2008-07-17 06:59:11 51°13.351 2°51.254 18.2996 4.556256 34.33253 4.536456
2008-07-17 06:59:16 51°13.349 2°51.251 18.2972 4.555425 34.325518 4.501632
2008-07-17 06:59:21 51°13.347 2°51.248 18.2972 4.555944 34.3299 4.501632
2008-07-17 06:59:26 51°13.345 2°51.246 18.2954 4.555217 34.323104 4.466808
2008-07-17 06:59:31 51°13.344 2°51.243 18.2965 4.555217 34.323104 4.466808
2008-07-17 06:59:36 51°13.342 2°51.24 18.2934 4.555737 34.328147 4.39716
2008-07-17 06:59:41 51°13.34 2°51.237 18.2936 4.551687 34.293307 4.39716
2008-07-17 06:59:46 51°13.338 2°51.235 18.2936 4.547741 34.26067 4.292688
2008-07-17 06:59:51 51°13.336 2°51.232 18.2937 4.552206 34.29901 4.22304
2008-07-17 06:59:56 51°13.335 2°51.23 18.2918 4.552206 34.29901 4.22304
2008-07-17 07:00:01 51°13.333 2°51.227 18.2935 4.558332 34.351384 4.188216
2008-07-17 07:00:05 51°13.332 2°51.225 18.2942 4.556463 34.335606 4.153392
2008-07-17 07:00:11 51°13.329 2°51.222 18.293 4.555633 34.329255 4.118568
2008-07-17 07:00:16 51°13.328 2°51.219 18.2939 4.557502 34.345695 4.04892
2008-07-17 07:00:21 51°13.326 2°51.216 18.2942 4.558748 34.356876 4.014096
2008-07-17 07:00:26 51°13.324 2°51.214 18.2927 4.558748 34.356876 4.014096
2008-07-17 07:00:31 51°13.323 2°51.21 18.2939 4.553764 34.3148 4.04892
2008-07-17 07:00:36 51°13.32 2°51.206 18.2924 4.552622 34.305159 3.979271
2008-07-17 07:00:41 51°13.317 2°51.201 18.2932 4.556879 34.341097 4.014096
2008-07-17 07:00:46 51°13.314 2°51.196 18.2939 4.556048 34.334084 3.944447
2008-07-17 07:00:51 51°13.311 2°51.19 18.2926 4.557294 34.344603 3.944447
2008-07-17 07:00:56 51°13.307 2°51.182 18.294 4.544626 34.237683 3.909623
2008-07-17 07:01:01 51°13.303 2°51.174 18.2953 4.544626 34.237683 3.909623
2008-07-17 07:01:05 51°13.299 2°51.166 18.2936 4.553037 34.309326 3.874799
2008-07-17 07:01:11 51°13.293 2°51.152 18.2949 4.545769 34.247981 3.874799
2008-07-17 07:01:16 51°13.288 2°51.138 18.2936 4.556048 34.334745 3.805151
2008-07-17 07:01:21 51°13.281 2°51.123 18.2952 4.542965 34.224324 3.805151
2008-07-17 07:01:26 51°13.275 2°51.106 18.296 4.547845 34.265506 3.805151
2008-07-17 07:01:31 51°13.268 2°51.088 18.2953 4.547845 34.265506 3.805151
2008-07-17 07:01:36 51°13.261 2°51.068 18.2947 4.553452 34.312832 3.770327
2008-07-17 07:01:41 51°13.253 2°51.047 18.2952 4.548572 34.27098 3.735503
2008-07-17 07:01:46 51°13.246 2°51.023 18.2939 4.542757 34.221912 3.770327
2008-07-17 07:01:51 51°13.238 2°51.001 18.2964 4.55231 34.30253 3.805151
2008-07-17 07:01:56 51°13.23 2°50.978 18.2964 4.55231 34.30253 3.805151
2008-07-17 07:02:01 51°13.221 2°50.955 18.2965 4.544003 34.232426 3.944447
2008-07-17 07:02:06 51°13.213 2°50.932 18.2979 4.544834 34.239435 4.04892
2008-07-17 07:02:11 51°13.204 2°50.908 18.2982 4.557606 34.347233 4.188216
2008-07-17 07:02:16 51°13.195 2°50.884 18.2992 4.553971 34.316553 4.292688
2008-07-17 07:02:21 51°13.186 2°50.86 18.2985 4.545769 34.247321 4.39716
2008-07-17 07:02:26 51°13.177 2°50.836 18.2989 4.549195 34.275578 4.501632
2008-07-17 07:02:31 51°13.168 2°50.811 18.3019 4.549195 34.275578 4.501632
2008-07-17 07:02:36 51°13.159 2°50.787 18.3027 4.531232 34.123372 4.606104
2008-07-17 07:02:41 51°13.15 2°50.763 18.3044 4.544626 34.236364 4.710577
2008-07-17 07:02:46 51°13.14 2°50.738 18.3031 4.550441 34.284773 4.780225
2008-07-17 07:02:51 51°13.131 2°50.714 18.303 4.550753 34.286741 4.884697
2008-07-17 07:02:56 51°13.122 2°50.689 18.3054 4.552725 34.302731 4.919521
2008-07-17 07:03:01 51°13.114 2°50.664 18.3066 4.552725 34.302731 4.919521
2008-07-17 07:03:06 51°13.105 2°50.638 18.3094 4.54961 34.275781 4.919521
2008-07-17 07:03:11 51°13.096 2°50.613 18.3068 4.546391 34.2473 4.954345
2008-07-17 07:03:16 51°13.088 2°50.588 18.3058 4.542653 34.215104 5.058817
2008-07-17 07:03:21 51°13.08 2°50.562 18.3073 4.554698 34.316078 5.093641
2008-07-17 07:03:26 51°13.071 2°50.537 18.3079 4.540681 34.197145 5.058817
2008-07-17 07:03:31 51°13.063 2°50.511 18.3083 4.540681 34.197145 5.058817
2008-07-17 07:03:36 51°13.055 2°50.485 18.3085 4.556048 34.325487 5.093641
2008-07-17 07:03:41 51°13.047 2°50.46 18.3075 4.548053 34.257359 5.093641
2008-07-17 07:03:45 51°13.04 2°50.439 18.3098 4.549818 34.271593 5.163289
2008-07-17 07:03:51 51°13.029 2°50.409 18.3086 4.550026 34.274005 5.163289
2008-07-17 07:03:56 51°13.021 2°50.383 18.3115 4.550026 34.274005 5.163289
2008-07-17 07:04:01 51°13.012 2°50.358 18.3078 4.542861 34.212244 5.163289
2008-07-17 07:04:06 51°13.003 2°50.333 18.3069 4.549714 34.270057 5.128465
2008-07-17 07:04:11 51°12.994 2°50.307 18.3068 4.552518 34.293052 5.128465
2008-07-17 07:04:16 51°12.985 2°50.282 18.3073 4.546599 34.243117 5.128465
2008-07-17 07:04:21 51°12.976 2°50.257 18.3051 4.534035 34.137154 5.128465
2008-07-17 07:04:26 51°12.966 2°50.232 18.3058 4.549714 34.269397 5.128465
2008-07-17 07:04:31 51°12.957 2°50.208 18.3046 4.549714 34.269397 5.128465
2008-07-17 07:04:36 51°12.947 2°50.183 18.3052 4.556982 34.33073 5.163289
2008-07-17 07:04:41 51°12.938 2°50.158 18.3031 4.53009 34.103887 5.163289
2008-07-17 07:04:46 51°12.928 2°50.134 18.3044 4.552102 34.290207 5.163289
2008-07-17 07:04:51 51°12.918 2°50.11 18.3046 4.543069 34.214654 5.128465
2008-07-17 07:04:56 51°12.908 2°50.086 18.3073 4.544211 34.224289 5.163289
2008-07-17 07:05:01 51°12.897 2°50.061 18.3058 4.544211 34.224289 5.163289
2008-07-17 07:05:05 51°12.889 2°50.042 18.3059 4.549714 34.271377 5.163289
2008-07-17 07:05:11 51°12.876 2°50.013 18.3083 4.548468 34.261523 5.128465
2008-07-17 07:05:16 51°12.866 2°49.988 18.3073 4.546495 34.245538 5.128465
2008-07-17 07:05:21 51°12.856 2°49.965 18.308 4.531024 34.11505 5.163289
2008-07-17 07:05:26 51°12.846 2°49.94 18.3075 4.531024 34.11505 5.163289
2008-07-17 07:05:31 51°12.836 2°49.916 18.3105 4.536839 34.163425 5.163289
2008-07-17 07:05:36 51°12.827 2°49.891 18.31 4.536112 34.157295 5.163289
2008-07-17 07:05:41 51°12.817 2°49.866 18.3098 4.55231 34.293281 5.163289
2008-07-17 07:05:46 51°12.808 2°49.841 18.3092 4.549299 34.267872 5.232937
2008-07-17 07:05:51 51°12.799 2°49.816 18.3111 4.542653 34.211151 5.198113
2008-07-17 07:05:56 51°12.79 2°49.791 18.3112 4.526041 34.070406 5.232937
2008-07-17 07:06:01 51°12.78 2°49.767 18.3124 4.526041 34.070406 5.232937
2008-07-17 07:06:06 51°12.771 2°49.742 18.3134 4.537462 34.166047 5.232937
2008-07-17 07:06:11 51°12.761 2°49.718 18.3137 4.529467 34.097978 5.267761
2008-07-17 07:06:16 51°12.752 2°49.693 18.3146 4.554594 34.309915 5.267761
2008-07-17 07:06:21 51°12.741 2°49.669 18.3166 4.547637 34.250557 5.302586
2008-07-17 07:06:26 51°12.732 2°49.644 18.3179 4.544938 34.227784 5.302586
2008-07-17 07:06:31 51°12.722 2°49.621 18.3205 4.544938 34.227784 5.302586
2008-07-17 07:06:36 51°12.712 2°49.596 18.3206 4.552102 34.287566 5.302586
2008-07-17 07:06:41 51°12.702 2°49.572 18.324 4.544211 34.220335 5.33741
2008-07-17 07:06:46 51°12.693 2°49.547 18.3237 4.550233 34.269818 5.33741
2008-07-17 07:06:51 51°12.683 2°49.523 18.3246 4.545457 34.228868 5.372234
2008-07-17 07:06:56 51°12.673 2°49.499 18.3253 4.547845 34.247693 5.407058
2008-07-17 07:07:01 51°12.664 2°49.474 18.3277 4.547845 34.247693 5.407058
2008-07-17 07:07:06 51°12.654 2°49.45 18.3272 4.550545 34.269146 5.407058
2008-07-17 07:07:11 51°12.644 2°49.425 18.3295 4.540784 34.185512 5.441882
2008-07-17 07:07:16 51°12.634 2°49.401 18.328 4.556775 34.319064 5.51153
2008-07-17 07:07:21 51°12.625 2°49.377 18.3293 4.538396 34.162745 5.476706
2008-07-17 07:07:26 51°12.615 2°49.353 18.3302 4.538396 34.162745 5.476706
2008-07-17 07:07:31 51°12.605 2°49.328 18.3303 4.560097 34.345116 5.546354
2008-07-17 07:07:36 51°12.595 2°49.303 18.3297 4.551998 34.27547 5.546354
2008-07-17 07:07:41 51°12.585 2°49.279 18.3306 4.541303 34.183967 5.51153
2008-07-17 07:07:45 51°12.578 2°49.258 18.3318 4.542134 34.19097 5.51153
2008-07-17 07:07:51 51°12.566 2°49.229 18.3311 4.547429 34.234962 5.51153
2008-07-17 07:07:56 51°12.557 2°49.204 18.331 4.549298 34.250064 5.546354
2008-07-17 07:08:01 51°12.547 2°49.179 18.3309 4.549298 34.250064 5.546354
2008-07-17 07:08:06 51°12.537 2°49.155 18.3315 4.551894 34.271296 5.546354
2008-07-17 07:08:11 51°12.528 2°49.13 18.3318 4.543691 34.201469 5.546354
2008-07-17 07:08:16 51°12.518 2°49.105 18.3311 4.556359 34.308295 5.51153
2008-07-17 07:08:21 51°12.508 2°49.08 18.3318 4.527805 34.06692 5.51153
2008-07-17 07:08:25 51°12.501 2°49.061 18.3322 4.551479 34.265815 5.51153
2008-07-17 07:08:31 51°12.489 2°49.03 18.3317 4.551479 34.265815 5.51153
2008-07-17 07:08:36 51°12.479 2°49.006 18.3319 4.545145 34.212408 5.581178
2008-07-17 07:08:41 51°12.47 2°48.981 18.3326 4.552102 34.271069 5.616002
2008-07-17 07:08:46 51°12.46 2°48.957 18.3342 4.549921 34.252681 5.581178
2008-07-17 07:08:51 51°12.451 2°48.931 18.3329 4.537877 34.151138 5.581178
2008-07-17 07:08:56 51°12.441 2°48.907 18.3332 4.540473 34.17236 5.616002
2008-07-17 07:09:01 51°12.432 2°48.881 18.3323 4.540473 34.17236 5.616002
2008-07-17 07:09:06 51°12.423 2°48.857 18.3329 4.556255 34.305438 5.616002
2008-07-17 07:09:11 51°12.415 2°48.831 18.3322 4.563005 34.362372 5.650826
2008-07-17 07:09:16 51°12.407 2°48.805 18.333 4.566847 34.394125 5.581178
2008-07-17 07:09:21 51°12.4 2°48.778 18.3314 4.56747 34.399382 5.650826
2008-07-17 07:09:26 51°12.392 2°48.752 18.332 4.56747 34.399382 5.650826
2008-07-17 07:09:31 51°12.386 2°48.725 18.3317 4.567989 34.403763 5.650826
2008-07-17 07:09:36 51°12.378 2°48.699 18.3332 4.568508 34.408144 5.650826
2008-07-17 07:09:41 51°12.372 2°48.672 18.3303 4.568923 34.410987 5.650826
2008-07-17 07:09:45 51°12.367 2°48.65 18.3307 4.569546 34.416244 5.650826
2008-07-17 07:09:51 51°12.359 2°48.618 18.3296 4.570066 34.421287 5.720474
2008-07-17 07:09:56 51°12.353 2°48.591 18.3295 4.570689 34.426545 5.720474
2008-07-17 07:10:01 51°12.346 2°48.564 18.3289 4.570689 34.426545 5.720474
2008-07-17 07:10:06 51°12.34 2°48.537 18.3296 4.571104 34.43005 5.68565
2008-07-17 07:10:11 51°12.334 2°48.509 18.3276 4.571623 34.435094 5.68565
2008-07-17 07:10:16 51°12.327 2°48.482 18.3276 4.572246 34.441015 5.68565
2008-07-17 07:10:21 51°12.321 2°48.455 18.3267 4.572765 34.445397 5.68565
2008-07-17 07:10:26 51°12.315 2°48.428 18.326 4.573077 34.448689 5.650826
2008-07-17 07:10:31 51°12.308 2°48.401 18.3243 4.573077 34.448689 5.650826
2008-07-17 07:10:36 51°12.302 2°48.374 18.3228 4.573388 34.451319 5.68565
2008-07-17 07:10:41 51°12.296 2°48.347 18.3213 4.5737 34.454611 5.650826
2008-07-17 07:10:46 51°12.289 2°48.32 18.3198 4.574011 34.457904 5.68565
2008-07-17 07:10:51 51°12.283 2°48.292 18.3185 4.574323 34.461197 5.650826
2008-07-17 07:10:56 51°12.276 2°48.265 18.3166 4.574634 34.464489 5.616002
2008-07-17 07:11:01 51°12.27 2°48.238 18.3146 4.574634 34.464489 5.616002
2008-07-17 07:11:06 51°12.264 2°48.211 18.3144 4.574842 34.46757 5.616002
2008-07-17 07:11:11 51°12.257 2°48.184 18.3129 4.57505 34.469986 5.650826
2008-07-17 07:11:16 51°12.251 2°48.156 18.31 4.575258 34.473067 5.616002
2008-07-17 07:11:21 51°12.244 2°48.13 18.3079 4.575465 34.476147 5.616002
2008-07-17 07:11:26 51°12.238 2°48.102 18.3058 4.575569 34.478352 5.616002
2008-07-17 07:11:31 51°12.231 2°48.075 18.303 4.575569 34.478352 5.616002
2008-07-17 07:11:36 51°12.225 2°48.048 18.3018 4.575673 34.48122 5.616002
2008-07-17 07:11:41 51°12.219 2°48.021 18.3013 4.575777 34.482761 5.546354
2008-07-17 07:11:46 51°12.213 2°47.994 18.2959 4.575777 34.484089 5.546354
2008-07-17 07:11:51 51°12.206 2°47.967 18.2968 4.575881 34.486958 5.51153
2008-07-17 07:11:56 51°12.2 2°47.94 18.2905 4.575881 34.488951 5.476706
2008-07-17 07:12:01 51°12.193 2°47.913 18.2927 4.575881 34.488951 5.476706
2008-07-17 07:12:05 51°12.188 2°47.891 18.2874 4.575881 34.491608 5.441882
2008-07-17 07:12:11 51°12.18 2°47.859 18.2863 4.575881 34.492937 5.372234
2008-07-17 07:12:16 51°12.174 2°47.831 18.2836 4.575881 34.49493 5.372234
2008-07-17 07:12:21 51°12.168 2°47.804 18.2797 4.575777 34.496711 5.302586
2008-07-17 07:12:26 51°12.162 2°47.776 18.2786 4.575777 34.498705 5.302586
2008-07-17 07:12:31 51°12.156 2°47.748 18.2759 4.575777 34.498705 5.302586
2008-07-17 07:12:36 51°12.15 2°47.721 18.2728 4.575777 34.500699 5.267761
2008-07-17 07:12:41 51°12.145 2°47.693 18.2723 4.575777 34.502693 5.198113
2008-07-17 07:12:46 51°12.139 2°47.666 18.2716 4.575777 34.505353 5.163289
2008-07-17 07:12:51 51°12.134 2°47.638 18.2664 4.575777 34.508013 5.163289
2008-07-17 07:12:56 51°12.128 2°47.61 18.2632 4.575777 34.508013 5.163289
2008-07-17 07:13:01 51°12.123 2°47.582 18.2622 4.575777 34.510008 5.163289
2008-07-17 07:13:06 51°12.117 2°47.555 18.2582 4.575674 34.511791 5.128465
2008-07-17 07:13:11 51°12.112 2°47.527 18.2584 4.575674 34.513787 5.093641
2008-07-17 07:13:16 51°12.106 2°47.499 18.2546 4.575674 34.515783 5.093641
2008-07-17 07:13:21 51°12.101 2°47.471 18.2477 4.575674 34.51778 5.058817
2008-07-17 07:13:26 51°12.095 2°47.444 18.2477 4.575778 34.520654 4.989169
2008-07-17 07:13:31 51°12.09 2°47.416 18.248 4.575778 34.520654 4.989169
2008-07-17 07:13:36 51°12.084 2°47.389 18.2444 4.575985 34.525738 4.919521
2008-07-17 07:13:41 51°12.078 2°47.361 18.2437 4.576297 34.530369 4.849873
2008-07-17 07:13:45 51°12.074 2°47.34 18.2427 4.576505 34.535455 4.780225
2008-07-17 07:13:51 51°12.067 2°47.306 18.2374 4.57692 34.541632 4.745401
2008-07-17 07:13:56 51°12.061 2°47.279 18.2337 4.577024 34.545842 4.640929
2008-07-17 07:14:01 51°12.056 2°47.252 18.2323 4.577024 34.545842 4.640929
2008-07-17 07:14:06 51°12.05 2°47.224 18.2287 4.577232 34.548932 4.57128
2008-07-17 07:14:11 51°12.044 2°47.196 18.227 4.577439 34.552688 4.536456
2008-07-17 07:14:16 51°12.038 2°47.169 18.225 4.577543 34.5549 4.431984
2008-07-17 07:14:21 51°12.032 2°47.142 18.2224 4.577855 34.560202 4.39716
2008-07-17 07:14:25 51°12.028 2°47.12 18.2198 4.577855 34.560202 4.39716
2008-07-17 07:14:31 51°12.02 2°47.087 18.2206 4.577959 34.563748 4.327512
2008-07-17 07:14:36 51°12.014 2°47.06 18.2162 4.578063 34.567962 4.257864
2008-07-17 07:14:41 51°12.007 2°47.033 18.2161 4.578063 34.569964 4.188216
2008-07-17 07:14:46 51°12 2°47.006 18.2157 4.578063 34.5733 4.153392
2008-07-17 07:14:51 51°11.993 2°46.98 18.2119 4.578063 34.575303 4.083744
2008-07-17 07:14:56 51°11.987 2°46.953 18.2114 4.578063 34.575303 4.083744
2008-07-17 07:15:01 51°11.98 2°46.926 18.2115 4.578063 34.577305 4.014096
2008-07-17 07:15:06 51°11.973 2°46.899 18.2094 4.578063 34.578641 3.979271
2008-07-17 07:15:11 51°11.967 2°46.872 18.2068 4.578063 34.580644 3.909623
2008-07-17 07:15:16 51°11.96 2°46.845 18.2041 4.577959 34.581768 3.874799
2008-07-17 07:15:21 51°11.954 2°46.818 18.2039 4.577959 34.583103 3.839975
2008-07-17 07:15:26 51°11.947 2°46.792 18.2022 4.577959 34.585107 3.805151
2008-07-17 07:15:31 51°11.941 2°46.764 18.2028 4.577959 34.585107 3.805151
2008-07-17 07:15:36 51°11.934 2°46.738 18.1997 4.577855 34.585564 3.770327
2008-07-17 07:15:41 51°11.927 2°46.711 18.1996 4.577855 34.5869 3.735503
2008-07-17 07:15:46 51°11.92 2°46.684 18.2004 4.577751 34.588025 3.700679
2008-07-17 07:15:51 51°11.913 2°46.657 18.1979 4.577751 34.589361 3.631031
2008-07-17 07:15:56 51°11.907 2°46.63 18.199 4.577648 34.590486 3.631031
2008-07-17 07:16:01 51°11.9 2°46.603 18.1965 4.577648 34.590486 3.631031
2008-07-17 07:16:05 51°11.896 2°46.581 18.1954 4.577648 34.591823 3.561383
2008-07-17 07:16:11 51°11.888 2°46.549 18.1931 4.577544 34.59228 3.526559
2008-07-17 07:16:16 51°11.883 2°46.521 18.1917 4.577544 34.59228 3.526559
2008-07-17 07:16:21 51°11.876 2°46.495 18.1934 4.577544 34.592948 3.456911
2008-07-17 07:16:26 51°11.87 2°46.467 18.1908 4.577544 34.592948 3.456911
2008-07-17 07:16:30 51°11.865 2°46.446 18.186 4.57744 34.592737 3.456911
2008-07-17 07:16:36 51°11.858 2°46.413 18.1855 4.57744 34.594074 3.422087
2008-07-17 07:16:41 51°11.852 2°46.386 18.185 4.57744 34.594743 3.422087
2008-07-17 07:16:46 51°11.846 2°46.359 18.183 4.577336 34.5952 3.352439
2008-07-17 07:16:51 51°11.84 2°46.332 18.1825 4.577232 34.595658 3.317614
2008-07-17 07:16:56 51°11.834 2°46.304 18.1803 4.577232 34.596995 3.317614
2008-07-17 07:17:01 51°11.828 2°46.277 18.1809 4.577232 34.596995 3.317614
2008-07-17 07:17:06 51°11.822 2°46.25 18.178 4.577129 34.598121 3.28279
2008-07-17 07:17:11 51°11.817 2°46.222 18.1769 4.577025 34.599247 3.28279
2008-07-17 07:17:16 51°11.811 2°46.195 18.1758 4.576921 34.599705 3.247966
2008-07-17 07:17:21 51°11.805 2°46.168 18.1767 4.576817 34.600163 3.178318
2008-07-17 07:17:25 51°11.8 2°46.146 18.1723 4.57661 34.599741 3.178318
2008-07-17 07:17:31 51°11.793 2°46.113 18.1718 4.57661 34.599741 3.178318
2008-07-17 07:17:36 51°11.787 2°46.086 18.1702 4.576506 34.600199 3.213142
2008-07-17 07:17:41 51°11.781 2°46.059 18.1678 4.576402 34.599988 3.178318
2008-07-17 07:17:46 51°11.776 2°46.031 18.1677 4.576402 34.601995 3.178318
2008-07-17 07:17:51 51°11.769 2°46.004 18.1647 4.576194 34.600905 3.178318
2008-07-17 07:17:56 51°11.764 2°45.977 18.1637 4.57609 34.601363 3.143494
2008-07-17 07:18:01 51°11.758 2°45.949 18.1635 4.57609 34.601363 3.143494
2008-07-17 07:18:06 51°11.752 2°45.922 18.1587 4.575987 34.601821 3.143494
2008-07-17 07:18:11 51°11.746 2°45.894 18.1566 4.575883 34.602948 3.10867
2008-07-17 07:18:16 51°11.74 2°45.867 18.1556 4.575779 34.602737 3.143494
2008-07-17 07:18:21 51°11.735 2°45.84 18.1517 4.575675 34.603865 3.10867
2008-07-17 07:18:26 51°11.729 2°45.812 18.1498 4.575571 34.604323 3.073846
2008-07-17 07:18:31 51°11.723 2°45.785 18.1493 4.575571 34.604323 3.073846
2008-07-17 07:18:36 51°11.717 2°45.758 18.1483 4.575468 34.604781 3.073846
2008-07-17 07:18:41 51°11.711 2°45.73 18.1433 4.575364 34.606579 3.073846
2008-07-17 07:18:45 51°11.707 2°45.708 18.1428 4.575156 34.606826 3.073846
2008-07-17 07:18:51 51°11.701 2°45.675 18.14 4.574948 34.607074 3.073846
2008-07-17 07:18:56 51°11.695 2°45.647 18.1358 4.574845 34.608872 3.039022
2008-07-17 07:19:01 51°11.69 2°45.619 18.134 4.574845 34.608872 3.039022
2008-07-17 07:19:06 51°11.685 2°45.591 18.1319 4.574741 34.609331 3.039022
2008-07-17 07:19:11 51°11.68 2°45.563 18.1295 4.574637 34.60979 3.039022
2008-07-17 07:19:16 51°11.675 2°45.536 18.1296 4.574429 34.611378 3.039022
2008-07-17 07:19:21 51°11.67 2°45.508 18.1235 4.574326 34.612506 3.039022
2008-07-17 07:19:26 51°11.665 2°45.48 18.1253 4.574222 34.613635 3.004198
2008-07-17 07:19:31 51°11.659 2°45.453 18.121 4.574222 34.613635 3.004198
2008-07-17 07:19:36 51°11.653 2°45.426 18.1199 4.574014 34.615894 3.073846
2008-07-17 07:19:41 51°11.646 2°45.399 18.1183 4.573807 34.616143 3.039022
2008-07-17 07:19:46 51°11.64 2°45.372 18.1163 4.573184 34.612199 3.073846
2008-07-17 07:19:51 51°11.634 2°45.344 18.1149 4.573599 34.617732 3.073846
2008-07-17 07:19:56 51°11.627 2°45.317 18.1118 4.573599 34.617732 3.073846
2008-07-17 07:20:01 51°11.621 2°45.29 18.1115 4.573391 34.618651 3.039022
2008-07-17 07:20:06 51°11.614 2°45.263 18.1106 4.573288 34.619781 3.073846
2008-07-17 07:20:11 51°11.607 2°45.236 18.1103 4.573184 34.620911 3.073846
2008-07-17 07:20:16 51°11.601 2°45.209 18.109 4.57308 34.621371 3.073846
2008-07-17 07:20:21 51°11.594 2°45.182 18.1068 4.572976 34.622502 3.039022
2008-07-17 07:20:26 51°11.587 2°45.155 18.1067 4.572872 34.623632 3.039022
2008-07-17 07:20:31 51°11.581 2°45.128 18.108 4.572872 34.623632 3.039022
2008-07-17 07:20:36 51°11.574 2°45.101 18.1085 4.572768 34.624093 3.073846
2008-07-17 07:20:41 51°11.568 2°45.074 18.1053 4.572665 34.624553 3.073846
2008-07-17 07:20:46 51°11.56 2°45.047 18.105 4.572561 34.625013 3.039022
2008-07-17 07:20:51 51°11.554 2°45.02 18.1044 4.572457 34.624803 3.073846
2008-07-17 07:20:56 51°11.547 2°44.993 18.1038 4.572353 34.625263 3.039022
2008-07-17 07:21:01 51°11.54 2°44.966 18.1022 4.572353 34.625263 3.039022
2008-07-17 07:21:06 51°11.533 2°44.939 18.1009 4.572353 34.625263 3.039022
2008-07-17 07:21:11 51°11.526 2°44.912 18.0979 4.572249 34.625723 3.039022
2008-07-17 07:21:16 51°11.52 2°44.885 18.1 4.572146 34.625513 3.039022
2008-07-17 07:21:21 51°11.513 2°44.857 18.0997 4.572146 34.626184 3.039022
2008-07-17 07:21:26 51°11.506 2°44.83 18.0965 4.572042 34.625973 3.004198
2008-07-17 07:21:31 51°11.499 2°44.803 18.0967 4.572042 34.625973 3.004198
2008-07-17 07:21:36 51°11.493 2°44.776 18.1001 4.572042 34.626644 3.073846
2008-07-17 07:21:41 51°11.486 2°44.749 18.0958 4.571938 34.627104 3.073846
2008-07-17 07:21:46 51°11.479 2°44.722 18.0962 4.571834 34.627565 3.10867
2008-07-17 07:21:51 51°11.473 2°44.695 18.096 4.571626 34.626473 3.10867
2008-07-17 07:21:56 51°11.466 2°44.668 18.0959 4.571626 34.627144 3.10867
2008-07-17 07:22:01 51°11.459 2°44.641 18.0951 4.571626 34.627144 3.10867
2008-07-17 07:22:06 51°11.452 2°44.614 18.094 4.571523 34.627605 3.143494
2008-07-17 07:22:11 51°11.445 2°44.587 18.0944 4.571523 34.627605 3.10867
2008-07-17 07:22:16 51°11.439 2°44.56 18.0928 4.571419 34.627394 3.10867
2008-07-17 07:22:21 51°11.432 2°44.533 18.0906 4.571419 34.627394 3.143494
2008-07-17 07:22:26 51°11.425 2°44.506 18.0901 4.571315 34.627184 3.143494
2008-07-17 07:22:31 51°11.418 2°44.479 18.0904 4.571315 34.627184 3.143494
2008-07-17 07:22:36 51°11.411 2°44.452 18.0905 4.571419 34.628065 3.143494
2008-07-17 07:22:41 51°11.405 2°44.425 18.0867 4.571315 34.627855 3.178318
2008-07-17 07:22:46 51°11.398 2°44.398 18.0861 4.571315 34.629197 3.213142
2008-07-17 07:22:51 51°11.391 2°44.371 18.085 4.571211 34.628987 3.178318
2008-07-17 07:22:56 51°11.385 2°44.344 18.0815 4.571107 34.628777 3.178318
2008-07-17 07:23:01 51°11.378 2°44.317 18.0782 4.571107 34.628777 3.178318
2008-07-17 07:23:06 51°11.371 2°44.29 18.0793 4.571004 34.628566 3.178318
2008-07-17 07:23:11 51°11.365 2°44.263 18.0769 4.571004 34.629237 3.213142
2008-07-17 07:23:16 51°11.359 2°44.236 18.0758 4.5709 34.630369 3.247966
2008-07-17 07:23:21 51°11.352 2°44.209 18.0746 4.570796 34.63083 3.247966
2008-07-17 07:23:26 51°11.346 2°44.181 18.0758 4.570692 34.631291 3.28279
2008-07-17 07:23:31 51°11.339 2°44.154 18.0767 4.570692 34.631291 3.28279
2008-07-17 07:23:36 51°11.333 2°44.127 18.0753 4.570588 34.632424 3.317614
2008-07-17 07:23:41 51°11.325 2°44.101 18.0782 4.570381 34.632003 3.317614
2008-07-17 07:23:46 51°11.318 2°44.074 18.0792 4.570277 34.633136 3.352439
2008-07-17 07:23:51 51°11.311 2°44.048 18.0834 4.570173 34.633597 3.317614
2008-07-17 07:23:56 51°11.304 2°44.021 18.0822 4.569965 34.632505 3.352439
2008-07-17 07:24:01 51°11.296 2°43.995 18.0822 4.569965 34.632505 3.352439
2008-07-17 07:24:05 51°11.291 2°43.973 18.0829 4.569965 34.632505 3.317614
2008-07-17 07:24:11 51°11.281 2°43.941 18.0834 4.569965 34.632505 3.28279
2008-07-17 07:24:16 51°11.274 2°43.915 18.0849 4.569965 34.631833 3.28279
2008-07-17 07:24:21 51°11.267 2°43.889 18.0861 4.569965 34.63049 3.28279
2008-07-17 07:24:26 51°11.259 2°43.862 18.0864 4.570069 34.630029 3.247966
2008-07-17 07:24:31 51°11.252 2°43.836 18.0862 4.570069 34.630029 3.247966
2008-07-17 07:24:36 51°11.244 2°43.809 18.0861 4.570173 34.63024 3.213142
2008-07-17 07:24:41 51°11.237 2°43.783 18.0876 4.570173 34.629568 3.213142
2008-07-17 07:24:46 51°11.23 2°43.756 18.0892 4.570173 34.628897 3.213142
2008-07-17 07:24:51 51°11.223 2°43.73 18.0893 4.570277 34.629107 3.213142
2008-07-17 07:24:56 51°11.215 2°43.703 18.0888 4.570381 34.629318 3.178318
2008-07-17 07:25:01 51°11.208 2°43.677 18.0879 4.570381 34.629318 3.178318
2008-07-17 07:25:06 51°11.201 2°43.65 18.0881 4.570381 34.628646 3.178318
2008-07-17 07:25:11 51°11.194 2°43.623 18.0889 4.570484 34.629528 3.178318
2008-07-17 07:25:16 51°11.187 2°43.597 18.0886 4.570484 34.628186 3.178318
2008-07-17 07:25:21 51°11.18 2°43.57 18.0879 4.570588 34.629067 3.178318
2008-07-17 07:25:26 51°11.173 2°43.544 18.0873 4.570588 34.629067 3.178318
2008-07-17 07:25:31 51°11.165 2°43.517 18.0887 4.570588 34.628396 3.143494
2008-07-17 07:25:36 51°11.159 2°43.491 18.0866 4.570692 34.629277 3.10867
2008-07-17 07:25:41 51°11.151 2°43.464 18.0882 4.570588 34.628396 3.143494
2008-07-17 07:25:46 51°11.144 2°43.438 18.0887 4.570692 34.629277 3.143494
2008-07-17 07:25:51 51°11.137 2°43.411 18.0869 4.570692 34.629277 3.10867
2008-07-17 07:25:56 51°11.13 2°43.385 18.0886 4.570692 34.629277 3.10867
2008-07-17 07:26:01 51°11.123 2°43.358 18.0873 4.570692 34.629277 3.10867
2008-07-17 07:26:05 51°11.118 2°43.337 18.0889 4.570692 34.629949 3.10867
2008-07-17 07:26:11 51°11.111 2°43.304 18.0879 4.570692 34.629949 3.10867
2008-07-17 07:26:16 51°11.106 2°43.278 18.0883 4.570692 34.629949 3.10867
2008-07-17 07:26:21 51°11.101 2°43.252 18.0888 4.570796 34.63083 3.10867
2008-07-17 07:26:26 51°11.097 2°43.227 18.0872 4.570796 34.63083 3.073846
2008-07-17 07:26:31 51°11.092 2°43.201 18.0898 4.570796 34.63083 3.073846
2008-07-17 07:26:36 51°11.089 2°43.176 18.0881 4.570796 34.630159 3.039022
2008-07-17 07:26:41 51°11.085 2°43.152 18.0892 4.5709 34.630369 3.039022
2008-07-17 07:26:46 51°11.082 2°43.128 18.0888 4.5709 34.630369 3.004198
2008-07-17 07:26:51 51°11.078 2°43.105 18.0872 4.5709 34.631041 2.969374
2008-07-17 07:26:56 51°11.075 2°43.084 18.0866 4.570796 34.630159 2.969374
2008-07-17 07:27:01 51°11.072 2°43.063 18.0862 4.570796 34.630159 2.969374
2008-07-17 07:27:06 51°11.069 2°43.044 18.0871 4.5709 34.631041 2.969374
2008-07-17 07:27:11 51°11.066 2°43.025 18.0861 4.5709 34.629698 2.93455
2008-07-17 07:27:16 51°11.064 2°43.007 18.0848 4.5709 34.630369 2.93455
2008-07-17 07:27:21 51°11.061 2°42.989 18.0838 4.570796 34.629488 2.93455
2008-07-17 07:27:26 51°11.06 2°42.972 18.0844 4.5709 34.631041 2.93455
2008-07-17 07:27:31 51°11.058 2°42.956 18.0854 4.5709 34.631041 2.93455
2008-07-17 07:27:36 51°11.058 2°42.94 18.0828 4.570796 34.63083 2.93455
2008-07-17 07:27:41 51°11.058 2°42.925 18.0779 4.570692 34.63062 2.899726
2008-07-17 07:27:46 51°11.057 2°42.91 18.0775 4.570692 34.63062 2.899726
2008-07-17 07:27:51 51°11.057 2°42.896 18.0763 4.570692 34.631291 2.93455
2008-07-17 07:27:56 51°11.057 2°42.881 18.0776 4.570692 34.631963 2.93455
2008-07-17 07:28:01 51°11.057 2°42.868 18.0755 4.570692 34.631963 2.93455
2008-07-17 07:28:06 51°11.057 2°42.854 18.0742 4.570692 34.631963 2.93455
2008-07-17 07:28:11 51°11.057 2°42.841 18.0756 4.570277 34.629779 2.969374
2008-07-17 07:28:16 51°11.057 2°42.827 18.0752 4.570485 34.632885 2.93455
2008-07-17 07:28:21 51°11.057 2°42.814 18.0736 4.570381 34.634017 2.93455
2008-07-17 07:28:25 51°11.057 2°42.804 18.0745 4.570277 34.634479 2.93455
2008-07-17 07:28:31 51°11.057 2°42.789 18.0722 4.570277 34.634479 2.93455
2008-07-17 07:28:36 51°11.058 2°42.776 18.0711 4.570173 34.634268 2.93455
2008-07-17 07:28:41 51°11.058 2°42.764 18.0691 4.570069 34.63473 2.969374
2008-07-17 07:28:46 51°11.058 2°42.752 18.0692 4.570069 34.63473 2.93455
2008-07-17 07:28:51 51°11.059 2°42.74 18.0681 4.570069 34.63473 2.969374
2008-07-17 07:28:56 51°11.059 2°42.728 18.0651 4.569965 34.63452 2.93455
2008-07-17 07:29:01 51°11.06 2°42.716 18.0641 4.569965 34.63452 2.93455
2008-07-17 07:29:06 51°11.06 2°42.704 18.0635 4.569965 34.635191 2.969374
2008-07-17 07:29:11 51°11.061 2°42.692 18.0596 4.569862 34.636324 3.004198
2008-07-17 07:29:16 51°11.062 2°42.68 18.058 4.569758 34.635442 2.969374
2008-07-17 07:29:21 51°11.063 2°42.669 18.0563 4.569758 34.636786 3.004198
2008-07-17 07:29:26 51°11.063 2°42.657 18.0547 4.56955 34.637037 3.004198
2008-07-17 07:29:31 51°11.064 2°42.645 18.0524 4.56955 34.637037 3.004198
2008-07-17 07:29:36 51°11.065 2°42.632 18.0516 4.569446 34.637499 3.004198
2008-07-17 07:29:41 51°11.066 2°42.62 18.0504 4.569343 34.63796 3.004198
2008-07-17 07:29:46 51°11.066 2°42.608 18.0474 4.569239 34.639094 3.004198
2008-07-17 07:29:51 51°11.067 2°42.595 18.046 4.569031 34.639346 3.004198
2008-07-17 07:29:56 51°11.068 2°42.583 18.0447 4.568823 34.639597 3.039022
2008-07-17 07:30:01 51°11.069 2°42.57 18.0408 4.568823 34.639597 3.039022
2008-07-17 07:30:05 51°11.069 2°42.56 18.038 4.56872 34.640731 3.004198
2008-07-17 07:30:11 51°11.07 2°42.545 18.0294 4.568512 34.640311 3.039022
2008-07-17 07:30:16 51°11.071 2°42.533 18.0278 4.568304 34.640563 3.004198
2008-07-17 07:30:21 51°11.071 2°42.52 18.0203 4.568201 34.641025 3.039022
2008-07-17 07:30:26 51°11.072 2°42.507 18.017 4.568097 34.641487 3.039022
2008-07-17 07:30:31 51°11.073 2°42.495 18.0185 4.568097 34.641487 3.039022
2008-07-17 07:30:36 51°11.073 2°42.482 18.0119 4.567785 34.641529 3.039022
2008-07-17 07:30:41 51°11.074 2°42.469 18.0086 4.567578 34.642454 3.10867
2008-07-17 07:30:46 51°11.074 2°42.456 18.0038 4.56737 34.644723 3.10867
2008-07-17 07:30:51 51°11.075 2°42.443 18.0047 4.566747 34.644136 3.143494
2008-07-17 07:30:56 51°11.075 2°42.431 17.9987 4.566332 34.644641 3.143494
2008-07-17 07:31:01 51°11.075 2°42.418 17.9922 4.566332 34.644641 3.143494
2008-07-17 07:31:06 51°11.076 2°42.405 17.9861 4.565917 34.643801 3.10867
2008-07-17 07:31:11 51°11.076 2°42.392 17.9843 4.565605 34.645189 3.10867
2008-07-17 07:31:16 51°11.076 2°42.379 17.9844 4.56519 34.645022 3.10867
2008-07-17 07:31:21 51°11.077 2°42.366 17.9824 4.564878 34.645738 3.10867
2008-07-17 07:31:26 51°11.077 2°42.353 17.9754 4.564463 34.644898 3.10867
2008-07-17 07:31:31 51°11.077 2°42.34 17.9751 4.564463 34.644898 3.10867
2008-07-17 07:31:36 51°11.077 2°42.327 17.9699 4.562906 34.636362 3.143494
2008-07-17 07:31:41 51°11.077 2°42.315 17.9647 4.562386 34.636657 3.10867
2008-07-17 07:31:46 51°11.078 2°42.304 17.9654 4.562179 34.638257 3.10867
2008-07-17 07:31:51 51°11.078 2°42.293 17.9655 4.561867 34.636953 3.073846
2008-07-17 07:31:56 51°11.078 2°42.282 17.957 4.561556 34.638343 3.039022
2008-07-17 07:32:01 51°11.078 2°42.271 17.9541 4.561556 34.638343 3.039022
2008-07-17 07:32:05 51°11.077 2°42.263 17.9526 4.561141 34.638176 3.073846
2008-07-17 07:32:11 51°11.077 2°42.252 17.9517 4.560933 34.639776 3.004198
2008-07-17 07:32:16 51°11.077 2°42.242 17.9488 4.560518 34.638936 3.004198
2008-07-17 07:32:21 51°11.076 2°42.233 17.9471 4.559895 34.637002 2.969374
2008-07-17 07:32:25 51°11.076 2°42.227 17.942 4.559895 34.640371 2.969374
2008-07-17 07:32:31 51°11.075 2°42.216 17.9396 4.559895 34.640371 2.969374
2008-07-17 07:32:36 51°11.074 2°42.208 17.9384 4.559895 34.64374 2.93455
2008-07-17 07:32:41 51°11.074 2°42.201 17.9382 4.559272 34.641806 2.864902
2008-07-17 07:32:46 51°11.073 2°42.194 17.9354 4.559064 34.641386 2.864902
2008-07-17 07:32:51 51°11.072 2°42.188 17.9329 4.559168 34.644292 2.830078
2008-07-17 07:32:56 51°11.071 2°42.182 17.9359 4.559064 34.646779 2.795254
2008-07-17 07:33:01 51°11.07 2°42.177 17.9323 4.559064 34.646779 2.795254
2008-07-17 07:33:05 51°11.069 2°42.173 17.9306 4.558753 34.646823 2.76043
2008-07-17 07:33:11 51°11.067 2°42.168 17.9292 4.558545 34.647078 2.690782
2008-07-17 07:33:16 51°11.067 2°42.164 17.9257 4.558338 34.647332 2.690782
2008-07-17 07:33:21 51°11.065 2°42.161 17.9252 4.558026 34.646703 2.655957
2008-07-17 07:33:26 51°11.064 2°42.158 17.9231 4.557299 34.641187 2.621133
2008-07-17 07:33:31 51°11.063 2°42.156 17.9233 4.557299 34.641187 2.621133
2008-07-17 07:33:36 51°11.062 2°42.153 17.9243 4.557819 34.646957 2.621133
2008-07-17 07:33:41 51°11.061 2°42.151 17.9245 4.557611 34.647212 2.551485
2008-07-17 07:33:46 51°11.06 2°42.149 17.9223 4.557403 34.647467 2.516661
2008-07-17 07:33:51 51°11.059 2°42.147 17.9247 4.557196 34.647722 2.481837
2008-07-17 07:33:56 51°11.058 2°42.145 17.9258 4.557092 34.648861 2.481837
2008-07-17 07:34:01 51°11.057 2°42.143 17.921 4.557092 34.648861 2.481837
2008-07-17 07:34:06 51°11.056 2°42.141 17.9205 4.556988 34.648651 2.447013
2008-07-17 07:34:11 51°11.055 2°42.139 17.9227 4.556884 34.647767 2.447013
2008-07-17 07:34:16 51°11.053 2°42.137 17.9211 4.556884 34.647767 2.447013
2008-07-17 07:34:21 51°11.052 2°42.135 17.9196 4.55678 34.647557 2.447013
2008-07-17 07:34:26 51°11.051 2°42.133 17.9176 4.55678 34.646882 2.412189
2008-07-17 07:34:31 51°11.05 2°42.131 17.9171 4.55678 34.646882 2.412189
2008-07-17 07:34:36 51°11.049 2°42.129 17.919 4.556677 34.647347 2.377365
2008-07-17 07:34:41 51°11.047 2°42.127 17.9149 4.556157 34.642924 2.412189
2008-07-17 07:34:46 51°11.046 2°42.125 17.9162 4.556573 34.647812 2.377365
2008-07-17 07:34:51 51°11.045 2°42.123 17.9161 4.556365 34.646717 2.342541
2008-07-17 07:34:56 51°11.044 2°42.122 17.914 4.556365 34.648067 2.342541
2008-07-17 07:35:01 51°11.043 2°42.12 17.9167 4.556365 34.648067 2.342541
2008-07-17 07:35:05 51°11.042 2°42.119 17.917 4.556365 34.648067 2.307717
2008-07-17 07:35:11 51°11.04 2°42.117 17.9166 4.556261 34.647182 2.272893
2008-07-17 07:35:15 51°11.039 2°42.115 17.9153 4.556261 34.647857 2.272893
2008-07-17 07:35:21 51°11.038 2°42.113 17.9147 4.556157 34.648322 2.272893
2008-07-17 07:35:26 51°11.036 2°42.112 17.9149 4.556054 34.648112 2.272893
2008-07-17 07:35:31 51°11.035 2°42.11 17.9148 4.556054 34.648112 2.272893
2008-07-17 07:35:36 51°11.034 2°42.109 17.9147 4.556054 34.648787 2.238069
2008-07-17 07:35:41 51°11.033 2°42.107 17.9134 4.556054 34.648112 2.272893
2008-07-17 07:35:46 51°11.032 2°42.106 17.9145 4.556054 34.648112 2.203245
2008-07-17 07:35:51 51°11.03 2°42.104 17.9144 4.55595 34.647902 2.203245
2008-07-17 07:35:56 51°11.029 2°42.103 17.9165 4.55595 34.648577 2.238069
2008-07-17 07:36:01 51°11.028 2°42.102 17.9146 4.55595 34.648577 2.238069
2008-07-17 07:36:06 51°11.026 2°42.1 17.9117 4.55595 34.648577 2.203245
2008-07-17 07:36:11 51°11.025 2°42.099 17.9118 4.555846 34.648367 2.203245
2008-07-17 07:36:16 51°11.024 2°42.097 17.9142 4.555846 34.648367 2.168421
2008-07-17 07:36:21 51°11.023 2°42.096 17.9099 4.555846 34.648367 2.168421
2008-07-17 07:36:26 51°11.022 2°42.095 17.9095 4.542971 34.538677 2.168421
2008-07-17 07:36:31 51°11.02 2°42.093 17.9085 4.542971 34.538677 2.168421
2008-07-17 07:36:36 51°11.019 2°42.092 17.9096 4.555846 34.648367 2.168421
2008-07-17 07:36:41 51°11.018 2°42.09 17.9088 4.555846 34.649042 2.133597
2008-07-17 07:36:46 51°11.017 2°42.089 17.9093 4.555742 34.648157 2.133597
2008-07-17 07:36:51 51°11.016 2°42.088 17.9072 4.555742 34.649507 2.063949
2008-07-17 07:36:56 51°11.014 2°42.086 17.9062 4.555638 34.649297 2.098773
2008-07-17 07:37:01 51°11.013 2°42.085 17.9078 4.555638 34.649297 2.098773
2008-07-17 07:37:05 51°11.012 2°42.084 17.9079 4.555535 34.649762 2.098773
2008-07-17 07:37:11 51°11.01 2°42.082 17.9076 4.555535 34.649762 2.098773
2008-07-17 07:37:16 51°11.008 2°42.08 17.908 4.555535 34.649762 2.063949
2008-07-17 07:37:21 51°11.006 2°42.077 17.9067 4.555431 34.649553 2.063949
2008-07-17 07:37:25 51°11.004 2°42.075 17.9086 4.555327 34.649343 2.063949
2008-07-17 07:37:31 51°11.001 2°42.073 17.9077 4.555327 34.649343 2.063949
2008-07-17 07:37:36 51°10.998 2°42.07 17.9077 4.555327 34.649343 2.063949
2008-07-17 07:37:41 51°10.995 2°42.068 17.9095 4.555223 34.648458 2.029124
2008-07-17 07:37:46 51°10.991 2°42.065 17.9086 4.555223 34.648458 2.029124
2008-07-17 07:37:51 51°10.986 2°42.061 17.9098 4.555223 34.649133 2.029124
2008-07-17 07:37:56 51°10.982 2°42.057 17.9106 4.555223 34.649133 2.029124
2008-07-17 07:38:01 51°10.976 2°42.053 17.9106 4.555223 34.648458 2.029124
2008-07-17 07:38:06 51°10.971 2°42.048 17.9087 4.555223 34.648458 2.063949
2008-07-17 07:38:11 51°10.965 2°42.042 17.9081 4.555223 34.648458 2.029124
2008-07-17 07:38:16 51°10.959 2°42.036 17.9077 4.555223 34.648458 2.029124
2008-07-17 07:38:21 51°10.952 2°42.029 17.9085 4.555327 34.649343 2.063949
2008-07-17 07:38:26 51°10.946 2°42.021 17.9085 4.555327 34.648668 2.063949
2008-07-17 07:38:31 51°10.94 2°42.012 17.9095 4.555327 34.648668 2.063949
2008-07-17 07:38:36 51°10.934 2°42.003 17.908 4.555327 34.648668 2.098773
2008-07-17 07:38:41 51°10.927 2°41.994 17.9093 4.555327 34.648668 2.133597
2008-07-17 07:38:46 51°10.92 2°41.983 17.9104 4.555327 34.649343 2.098773
2008-07-17 07:38:51 51°10.912 2°41.972 17.9133 4.555223 34.649133 2.133597
2008-07-17 07:38:56 51°10.905 2°41.96 17.9158 4.555223 34.648458 2.203245
2008-07-17 07:39:01 51°10.896 2°41.948 17.9155 4.555223 34.648458 2.203245
2008-07-17 07:39:06 51°10.888 2°41.935 17.9162 4.555119 34.647573 2.272893
2008-07-17 07:39:11 51°10.879 2°41.921 17.92 4.555119 34.647573 2.307717
2008-07-17 07:39:16 51°10.87 2°41.907 17.9237 4.555223 34.647783 2.412189
2008-07-17 07:39:21 51°10.861 2°41.893 17.9266 4.555223 34.647108 2.447013
2008-07-17 07:39:26 51°10.852 2°41.878 17.9315 4.555327 34.646643 2.481837
2008-07-17 07:39:31 51°10.843 2°41.863 17.935 4.555327 34.646643 2.481837
2008-07-17 07:39:36 51°10.834 2°41.847 17.9395 4.555431 34.646178 2.516661
2008-07-17 07:39:41 51°10.825 2°41.832 17.9434 4.555534 34.645713 2.621133
2008-07-17 07:39:46 51°10.816 2°41.816 17.9473 4.555742 34.645458 2.655957
2008-07-17 07:39:51 51°10.807 2°41.8 17.9536 4.556054 34.645413 2.76043
2008-07-17 07:39:56 51°10.797 2°41.785 17.9588 4.556365 34.644693 2.795254
2008-07-17 07:40:01 51°10.788 2°41.769 17.9627 4.556365 34.644693 2.795254
2008-07-17 07:40:06 51°10.779 2°41.753 17.9677 4.556676 34.643973 2.864902
2008-07-17 07:40:11 51°10.77 2°41.737 17.9714 4.557092 34.643464 2.93455
2008-07-17 07:40:16 51°10.76 2°41.721 17.9756 4.557403 34.642071 2.969374
2008-07-17 07:40:21 51°10.751 2°41.704 17.9793 4.557922 34.643121 2.969374
2008-07-17 07:40:26 51°10.742 2°41.688 17.9832 4.558441 34.642822 3.004198
2008-07-17 07:40:31 51°10.732 2°41.672 17.9861 4.558441 34.642822 3.004198
2008-07-17 07:40:36 51°10.723 2°41.656 17.9896 4.55896 34.642524 3.039022
2008-07-17 07:40:41 51°10.713 2°41.64 17.9938 4.55948 34.642226 3.039022
2008-07-17 07:40:46 51°10.704 2°41.623 17.9973 4.559999 34.642602 3.039022
2008-07-17 07:40:51 51°10.695 2°41.607 18.0002 4.560414 34.642095 3.039022
2008-07-17 07:40:56 51°10.685 2°41.59 18.0034 4.560829 34.641587 3.073846
2008-07-17 07:41:01 51°10.676 2°41.574 18.006 4.560829 34.641587 3.073846
2008-07-17 07:41:06 51°10.667 2°41.558 18.0086 4.545877 34.510344 3.073846
2008-07-17 07:41:11 51°10.657 2°41.541 18.011 4.56166 34.64192 3.10867
2008-07-17 07:41:16 51°10.648 2°41.525 18.0143 4.562075 34.641414 3.039022
2008-07-17 07:41:21 51°10.639 2°41.508 18.015 4.562594 34.64179 3.039022
2008-07-17 07:41:25 51°10.631 2°41.495 18.0164 4.562906 34.641074 3.073846
2008-07-17 07:41:31 51°10.62 2°41.475 18.0182 4.562906 34.641074 3.073846
2008-07-17 07:41:36 51°10.611 2°41.458 18.0196 4.563321 34.641914 3.039022
2008-07-17 07:41:41 51°10.602 2°41.442 18.0218 4.563632 34.641871 3.073846
2008-07-17 07:41:46 51°10.593 2°41.425 18.0227 4.563944 34.641828 3.039022
2008-07-17 07:41:51 51°10.583 2°41.408 18.0254 4.564255 34.641785 3.073846
2008-07-17 07:41:56 51°10.574 2°41.392 18.0267 4.564567 34.642416 3.039022
2008-07-17 07:42:01 51°10.565 2°41.375 18.0275 4.564567 34.642416 3.039022
2008-07-17 07:42:06 51°10.555 2°41.359 18.0305 4.564774 34.64149 3.039022
2008-07-17 07:42:11 51°10.546 2°41.342 18.0318 4.564982 34.64191 3.039022
2008-07-17 07:42:16 51°10.537 2°41.326 18.031 4.56519 34.64233 3.039022
2008-07-17 07:42:21 51°10.527 2°41.31 18.0323 4.565294 34.641195 3.039022
2008-07-17 07:42:26 51°10.518 2°41.293 18.034 4.565605 34.641825 3.039022
2008-07-17 07:42:31 51°10.508 2°41.277 18.0327 4.565605 34.641825 3.039022
2008-07-17 07:42:36 51°10.499 2°41.26 18.033 4.565709 34.642035 3.004198
2008-07-17 07:42:41 51°10.489 2°41.244 18.0354 4.565917 34.641782 3.039022
2008-07-17 07:42:46 51°10.48 2°41.227 18.0349 4.56602 34.64132 3.039022
2008-07-17 07:42:51 51°10.47 2°41.211 18.0358 4.566228 34.64174 3.039022
2008-07-17 07:42:56 51°10.461 2°41.194 18.0356 4.566332 34.641277 3.073846
2008-07-17 07:43:01 51°10.452 2°41.178 18.0374 4.566332 34.641277 3.073846
2008-07-17 07:43:06 51°10.442 2°41.162 18.0356 4.566436 34.64216 3.073846
2008-07-17 07:43:11 51°10.433 2°41.145 18.0355 4.566539 34.64237 3.073846
2008-07-17 07:43:16 51°10.424 2°41.129 18.0367 4.566643 34.64258 3.10867
2008-07-17 07:43:21 51°10.415 2°41.112 18.0384 4.566643 34.641908 3.143494
2008-07-17 07:43:26 51°10.406 2°41.094 18.0388 4.566747 34.642118 3.143494
2008-07-17 07:43:31 51°10.397 2°41.078 18.0388 4.566747 34.642118 3.143494
2008-07-17 07:43:36 51°10.388 2°41.06 18.0399 4.566747 34.641445 3.213142
2008-07-17 07:43:41 51°10.38 2°41.043 18.0424 4.566851 34.642328 3.213142
2008-07-17 07:43:46 51°10.371 2°41.025 18.0407 4.566851 34.641655 3.247966
2008-07-17 07:43:51 51°10.362 2°41.007 18.042 4.566955 34.641865 3.28279
2008-07-17 07:43:56 51°10.354 2°40.99 18.0434 4.566955 34.641865 3.28279
2008-07-17 07:44:01 51°10.345 2°40.972 18.045 4.566955 34.641865 3.28279
2008-07-17 07:44:05 51°10.338 2°40.959 18.0471 4.567059 34.642076 3.317614
2008-07-17 07:44:11 51°10.328 2°40.937 18.0471 4.567059 34.641403 3.317614
2008-07-17 07:44:16 51°10.32 2°40.92 18.0486 4.567162 34.641613 3.352439
2008-07-17 07:44:21 51°10.312 2°40.902 18.0497 4.567266 34.641151 3.352439
2008-07-17 07:44:26 51°10.303 2°40.884 18.051 4.56332 34.606947 3.387263
2008-07-17 07:44:31 51°10.295 2°40.866 18.0526 4.56332 34.606947 3.387263
2008-07-17 07:44:36 51°10.287 2°40.848 18.0531 4.567474 34.640899 3.352439
2008-07-17 07:44:41 51°10.279 2°40.83 18.0549 4.567578 34.641109 3.387263
2008-07-17 07:44:46 51°10.271 2°40.812 18.0567 4.567681 34.640647 3.387263
2008-07-17 07:44:51 51°10.263 2°40.794 18.0577 4.567681 34.639302 3.352439
2008-07-17 07:44:56 51°10.256 2°40.774 18.0573 4.567785 34.63884 3.352439
2008-07-17 07:45:01 51°10.248 2°40.756 18.0582 4.567785 34.63884 3.352439
2008-07-17 07:45:06 51°10.241 2°40.737 18.0594 4.567889 34.63905 3.387263
2008-07-17 07:45:11 51°10.234 2°40.718 18.0591 4.567993 34.638588 3.352439
2008-07-17 07:45:16 51°10.228 2°40.698 18.0598 4.567993 34.637244 3.352439
2008-07-17 07:45:21 51°10.221 2°40.679 18.0625 4.568201 34.637664 3.317614
2008-07-17 07:45:26 51°10.214 2°40.659 18.0606 4.5682 34.63632 3.352439
2008-07-17 07:45:31 51°10.208 2°40.64 18.0635 4.5682 34.63632 3.352439
2008-07-17 07:45:36 51°10.201 2°40.62 18.0627 4.568304 34.635858 3.28279
2008-07-17 07:45:41 51°10.195 2°40.601 18.0647 4.568304 34.635858 3.28279
2008-07-17 07:45:46 51°10.188 2°40.581 18.0649 4.568304 34.635186 3.28279
2008-07-17 07:45:51 51°10.182 2°40.562 18.0636 4.568408 34.634725 3.317614
2008-07-17 07:45:56 51°10.175 2°40.543 18.0645 4.568408 34.634053 3.247966
2008-07-17 07:46:01 51°10.168 2°40.523 18.0645 4.568408 34.634053 3.247966
2008-07-17 07:46:06 51°10.161 2°40.504 18.0652 4.568408 34.634053 3.28279
2008-07-17 07:46:11 51°10.155 2°40.485 18.0655 4.568408 34.633381 3.28279
2008-07-17 07:46:16 51°10.148 2°40.465 18.067 4.568408 34.632709 3.247966
2008-07-17 07:46:21 51°10.142 2°40.447 18.0665 4.568408 34.632037 3.247966
2008-07-17 07:46:26 51°10.136 2°40.43 18.0661 4.568408 34.632037 3.213142
2008-07-17 07:46:31 51°10.13 2°40.413 18.0678 4.568408 34.632037 3.213142
2008-07-17 07:46:36 51°10.125 2°40.397 18.0677 4.568408 34.631366 3.213142
2008-07-17 07:46:41 51°10.119 2°40.382 18.0686 4.568304 34.630484 3.213142
2008-07-17 07:46:46 51°10.115 2°40.366 18.0694 4.568304 34.629812 3.213142
2008-07-17 07:46:51 51°10.11 2°40.352 18.0701 4.568304 34.62914 3.213142
2008-07-17 07:46:56 51°10.106 2°40.337 18.0685 4.568304 34.628468 3.178318
2008-07-17 07:47:01 51°10.102 2°40.323 18.0696 4.568304 34.628468 3.178318
2008-07-17 07:47:06 51°10.098 2°40.309 18.0703 4.568304 34.628468 3.178318
2008-07-17 07:47:11 51°10.095 2°40.296 18.0713 4.568304 34.627797 3.143494
2008-07-17 07:47:16 51°10.091 2°40.282 18.0721 4.568304 34.627125 3.143494
2008-07-17 07:47:21 51°10.088 2°40.269 18.0741 4.568304 34.626454 3.143494
2008-07-17 07:47:26 51°10.084 2°40.256 18.0723 4.568304 34.626454 3.10867
2008-07-17 07:47:31 51°10.081 2°40.244 18.0728 4.568304 34.626454 3.10867
2008-07-17 07:47:36 51°10.078 2°40.231 18.0729 4.568304 34.625782 3.10867
2008-07-17 07:47:41 51°10.075 2°40.218 18.0758 4.568304 34.625782 3.073846
2008-07-17 07:47:46 51°10.073 2°40.206 18.0778 4.5682 34.624229 3.073846
2008-07-17 07:47:51 51°10.072 2°40.192 18.0775 4.568304 34.624439 3.073846
2008-07-17 07:47:56 51°10.072 2°40.179 18.0827 4.568304 34.623768 3.039022
2008-07-17 07:48:01 51°10.074 2°40.165 18.0834 4.568304 34.623768 3.039022
2008-07-17 07:48:05 51°10.076 2°40.155 18.081 4.568408 34.623978 3.039022
2008-07-17 07:48:11 51°10.08 2°40.141 18.0834 4.568408 34.623307 3.039022
2008-07-17 07:48:16 51°10.085 2°40.13 18.0851 4.568408 34.621964 3.004198
2008-07-17 07:48:21 51°10.091 2°40.122 18.0812 4.568616 34.622385 3.004198
2008-07-17 07:48:26 51°10.098 2°40.114 18.0852 4.568823 34.622134 3.004198
2008-07-17 07:48:31 51°10.105 2°40.109 18.0825 4.568823 34.622134 3.004198
2008-07-17 07:48:36 51°10.112 2°40.106 18.0799 4.568927 34.621002 3.073846
2008-07-17 07:48:41 51°10.12 2°40.105 18.0786 4.569135 34.621423 3.143494
2008-07-17 07:48:45 51°10.126 2°40.106 18.0769 4.569238 34.621634 3.213142
2008-07-17 07:48:51 51°10.134 2°40.11 18.0775 4.569238 34.620962 3.28279
2008-07-17 07:48:56 51°10.14 2°40.116 18.0763 4.569238 34.620962 3.28279
2008-07-17 07:49:01 51°10.146 2°40.124 18.0732 4.569238 34.620962 3.28279
2008-07-17 07:49:06 51°10.15 2°40.133 18.0716 4.569238 34.620962 3.317614
2008-07-17 07:49:11 51°10.154 2°40.143 18.0719 4.569135 34.621423 3.317614
2008-07-17 07:49:16 51°10.155 2°40.154 18.0647 4.569135 34.622094 3.317614
2008-07-17 07:49:21 51°10.156 2°40.166 18.0627 4.569031 34.621884 3.352439
2008-07-17 07:49:26 51°10.156 2°40.18 18.0595 4.568927 34.622345 3.387263
2008-07-17 07:49:31 51°10.156 2°40.194 18.0579 4.568927 34.622345 3.387263
2008-07-17 07:49:36 51°10.156 2°40.21 18.0569 4.568823 34.622806 3.491735
2008-07-17 07:49:41 51°10.157 2°40.227 18.0544 4.568719 34.623266 3.456911
2008-07-17 07:49:46 51°10.157 2°40.245 18.0556 4.568512 34.624188 3.491735
2008-07-17 07:49:51 51°10.158 2°40.263 18.0553 4.568408 34.625992 3.526559
2008-07-17 07:49:56 51°10.158 2°40.283 18.0553 4.568097 34.626705 3.526559
2008-07-17 07:50:01 51°10.159 2°40.303 18.054 4.568097 34.626705 3.526559
2008-07-17 07:50:06 51°10.159 2°40.324 18.0546 4.567889 34.627627 3.526559
2008-07-17 07:50:11 51°10.16 2°40.345 18.0556 4.567681 34.62855 3.526559
2008-07-17 07:50:16 51°10.16 2°40.366 18.0573 4.567474 34.628129 3.491735